Time,TemperatureF,DewpointF,PressureIn,WindDirection,WindDirectionDegrees,WindSpeedMPH,WindSpeedGustMPH,Humidity,HourlyPrecipIn,Conditions,Clouds,dailyrainin,SoftwareType,DateUTC
2013-11-10 00:00:00,42.4,14.7,24.95,WNW,303,0.0,6.3,32,0.00,,---,0.00,VWS V14.01,2013-11-10 06:00:00,
2013-11-10 00:01:00,42.4,14.7,24.95,WNW,303,0.0,6.3,32,0.00,,---,0.00,VWS V14.01,2013-11-10 06:01:00,
2013-11-10 00:02:00,42.4,14.7,24.95,WNW,303,2.7,6.3,32,0.00,,---,0.00,VWS V14.01,2013-11-10 06:02:00,
2013-11-10 00:03:00,42.4,14.7,24.95,WNW,303,2.7,6.3,32,0.00,,---,0.00,VWS V14.01,2013-11-10 06:03:00,
2013-11-10 00:05:00,42.4,14.7,24.95,WNW,303,2.7,6.3,32,0.00,,---,0.00,VWS V14.01,2013-11-10 06:05:00,
2013-11-10 00:06:00,42.4,14.7,24.95,NNW,330,4.0,6.3,32,0.00,,---,0.00,VWS V14.01,2013-11-10 06:06:00,
2013-11-10 00:07:00,42.4,14.7,24.95,NNW,330,4.0,6.3,32,0.00,,---,0.00,VWS V14.01,2013-11-10 06:07:00,
2013-11-10 00:08:00,42.4,14.7,24.95,NNW,330,4.0,6.3,32,0.00,,---,0.00,VWS V14.01,2013-11-10 06:08:00,
2013-11-10 00:10:00,42.4,14.7,24.95,NNW,330,4.0,6.3,32,0.00,,---,0.00,VWS V14.01,2013-11-10 06:10:00,
2013-11-10 00:11:00,42.8,15.7,24.95,NNW,330,4.0,6.3,33,0.00,,---,0.00,VWS V14.01,2013-11-10 06:11:00,
2013-11-10 00:12:00,42.8,15.7,24.95,NNW,330,4.0,6.3,33,0.00,,---,0.00,VWS V14.01,2013-11-10 06:12:00,
2013-11-10 00:14:00,42.8,15.7,24.95,NW,315,4.0,6.3,33,0.00,,---,0.00,VWS V14.01,2013-11-10 06:14:00,
2013-11-10 00:15:00,42.8,15.7,24.95,NW,306,3.1,6.3,33,0.00,,---,0.00,VWS V14.01,2013-11-10 06:15:00,
2013-11-10 00:16:00,43.0,15.9,24.95,NW,306,3.1,6.3,33,0.00,,---,0.00,VWS V14.01,2013-11-10 06:16:00,
2013-11-10 00:17:00,43.0,15.9,24.95,NW,306,3.1,6.3,33,0.00,,---,0.00,VWS V14.01,2013-11-10 06:17:00,
2013-11-10 00:19:00,43.0,15.9,24.95,NW,306,3.1,6.3,33,0.00,,---,0.00,VWS V14.01,2013-11-10 06:19:00,
2013-11-10 00:20:00,43.0,15.9,24.95,NW,305,4.5,6.3,33,0.00,,---,0.00,VWS V14.01,2013-11-10 06:20:00,
2013-11-10 00:22:00,43.0,15.9,24.95,NW,305,4.5,6.3,33,0.00,,---,0.00,VWS V14.01,2013-11-10 06:22:00,
2013-11-10 00:23:00,43.0,15.9,24.95,NW,305,4.5,6.3,33,0.00,,---,0.00,VWS V14.01,2013-11-10 06:23:00,
2013-11-10 00:24:00,43.0,15.9,24.95,NW,304,3.1,6.3,33,0.00,,---,0.00,VWS V14.01,2013-11-10 06:24:00,
2013-11-10 00:25:00,43.0,16.5,24.95,NW,304,3.1,6.3,34,0.00,,---,0.00,VWS V14.01,2013-11-10 06:25:00,
2013-11-10 00:26:00,43.0,16.5,24.95,NW,304,3.1,6.3,34,0.00,,---,0.00,VWS V14.01,2013-11-10 06:26:00,
2013-11-10 00:27:00,43.0,16.5,24.95,NW,304,3.6,6.3,34,0.00,,---,0.00,VWS V14.01,2013-11-10 06:27:00,
2013-11-10 00:28:00,43.2,16.7,24.95,NW,304,3.6,6.3,34,0.00,,---,0.00,VWS V14.01,2013-11-10 06:28:00,
2013-11-10 00:29:00,43.2,16.7,24.95,NW,310,3.6,6.3,34,0.00,,---,0.00,VWS V14.01,2013-11-10 06:29:00,
2013-11-10 00:30:00,43.2,16.7,24.95,NW,310,3.6,6.3,34,0.00,,---,0.00,VWS V14.01,2013-11-10 06:30:00,
2013-11-10 00:31:00,43.2,16.7,24.95,NW,310,3.6,6.3,34,0.00,,---,0.00,VWS V14.01,2013-11-10 06:31:00,
2013-11-10 00:32:00,43.2,16.7,24.95,NW,312,3.6,3.6,34,0.00,,---,0.00,VWS V14.01,2013-11-10 06:32:00,
2013-11-10 00:33:00,43.2,16.7,24.95,NW,312,3.6,3.6,34,0.00,,---,0.00,VWS V14.01,2013-11-10 06:33:00,
2013-11-10 00:34:00,43.3,16.9,24.95,NW,312,4.0,4.0,34,0.00,,---,0.00,VWS V14.01,2013-11-10 06:34:00,
2013-11-10 00:36:00,43.3,16.9,24.95,NW,312,3.6,3.6,34,0.00,,---,0.00,VWS V14.01,2013-11-10 06:36:00,
2013-11-10 00:37:00,43.3,16.9,24.95,NW,312,3.6,3.6,34,0.00,,---,0.00,VWS V14.01,2013-11-10 06:37:00,
2013-11-10 00:38:00,43.3,16.9,24.95,NW,312,2.7,3.6,34,0.00,,---,0.00,VWS V14.01,2013-11-10 06:38:00,
2013-11-10 00:40:00,43.3,16.9,24.95,NW,312,2.7,2.7,34,0.00,,---,0.00,VWS V14.01,2013-11-10 06:40:00,
2013-11-10 00:41:00,43.3,16.9,24.95,NW,312,2.7,2.7,34,0.00,,---,0.00,VWS V14.01,2013-11-10 06:41:00,
2013-11-10 00:42:00,43.3,16.2,24.95,NW,312,3.1,3.1,33,0.00,,---,0.00,VWS V14.01,2013-11-10 06:42:00,
2013-11-10 00:43:00,43.3,16.2,24.95,NW,312,3.1,3.1,33,0.00,,---,0.00,VWS V14.01,2013-11-10 06:43:00,
2013-11-10 00:46:00,43.3,16.2,24.95,NW,312,3.1,3.1,33,0.00,,---,0.00,VWS V14.01,2013-11-10 06:46:00,
2013-11-10 00:47:00,43.3,16.2,24.95,NW,312,3.1,3.1,33,0.00,,---,0.00,VWS V14.01,2013-11-10 06:47:00,
2013-11-10 00:48:00,43.3,16.2,24.95,NW,312,3.1,3.1,33,0.00,,---,0.00,VWS V14.01,2013-11-10 06:48:00,
2013-11-10 00:50:00,43.3,16.2,24.95,NW,312,3.1,3.1,33,0.00,,---,0.00,VWS V14.01,2013-11-10 06:50:00,
2013-11-10 00:51:00,43.2,16.7,24.95,NW,312,3.1,3.1,34,0.00,,---,0.00,VWS V14.01,2013-11-10 06:51:00,
2013-11-10 00:52:00,43.2,16.7,24.95,NW,312,3.1,3.1,34,0.00,,---,0.00,VWS V14.01,2013-11-10 06:52:00,
2013-11-10 00:53:00,43.2,16.7,24.95,NW,312,3.1,3.1,34,0.00,,---,0.00,VWS V14.01,2013-11-10 06:53:00,
2013-11-10 00:55:00,43.2,16.0,24.95,NW,312,3.1,3.1,33,0.00,,---,0.00,VWS V14.01,2013-11-10 06:55:00,
2013-11-10 00:56:00,43.2,16.0,24.95,NW,312,3.1,3.1,33,0.00,,---,0.00,VWS V14.01,2013-11-10 06:56:00,
2013-11-10 00:58:00,43.2,16.0,24.95,NW,312,3.1,3.1,33,0.00,,---,0.00,VWS V14.01,2013-11-10 06:58:00,
2013-11-10 01:01:00,43.2,16.0,24.95,NW,312,3.1,3.1,33,0.00,,---,0.00,VWS V14.01,2013-11-10 07:01:00,
2013-11-10 01:03:00,42.4,15.4,24.95,NW,312,3.1,3.1,33,0.00,,---,0.00,VWS V14.01,2013-11-10 07:03:00,
2013-11-10 01:06:00,42.4,15.4,24.95,NW,312,3.1,3.1,33,0.00,,---,0.00,VWS V14.01,2013-11-10 07:06:00,
2013-11-10 01:07:00,42.4,15.4,24.95,NW,312,3.1,3.1,33,0.00,,---,0.00,VWS V14.01,2013-11-10 07:07:00,
2013-11-10 01:08:00,42.4,15.4,24.95,NW,312,3.1,3.1,33,0.00,,---,0.00,VWS V14.01,2013-11-10 07:08:00,
2013-11-10 01:11:00,42.4,15.4,24.95,NW,312,3.1,3.1,33,0.00,,---,0.00,VWS V14.01,2013-11-10 07:11:00,
2013-11-10 01:12:00,42.4,15.4,24.95,NW,312,3.1,3.1,33,0.00,,---,0.00,VWS V14.01,2013-11-10 07:12:00,
2013-11-10 01:13:00,41.4,15.1,24.95,NW,312,3.1,3.1,34,0.00,,---,0.00,VWS V14.01,2013-11-10 07:13:00,
2013-11-10 01:14:00,41.4,15.1,24.95,NW,312,3.1,3.1,34,0.00,,---,0.00,VWS V14.01,2013-11-10 07:14:00,
2013-11-10 01:15:00,38.1,15.9,24.95,NW,308,4.0,4.0,40,0.00,,---,0.00,VWS V14.01,2013-11-10 07:15:00,
2013-11-10 01:16:00,41.4,15.1,24.95,NW,312,3.1,3.1,34,0.00,,---,0.00,VWS V14.01,2013-11-10 07:16:00,
2013-11-10 01:17:00,41.4,15.1,24.95,NW,312,3.1,3.1,34,0.00,,---,0.00,VWS V14.01,2013-11-10 07:17:00,
2013-11-10 01:18:00,41.4,15.1,24.95,NW,312,3.1,3.1,34,0.00,,---,0.00,VWS V14.01,2013-11-10 07:18:00,
2013-11-10 01:19:00,41.4,15.1,24.95,NW,312,3.1,3.1,34,0.00,,---,0.00,VWS V14.01,2013-11-10 07:19:00,
2013-11-10 01:20:00,37.8,15.6,24.95,NW,308,4.0,4.0,40,0.00,,---,0.00,VWS V14.01,2013-11-10 07:20:00,
2013-11-10 01:21:00,41.4,15.1,24.95,NW,312,3.1,3.1,34,0.00,,---,0.00,VWS V14.01,2013-11-10 07:21:00,
2013-11-10 01:22:00,41.4,15.1,24.95,NW,312,3.1,3.1,34,0.00,,---,0.00,VWS V14.01,2013-11-10 07:22:00,
2013-11-10 01:23:00,41.4,15.1,24.95,NW,312,3.1,3.1,34,0.00,,---,0.00,VWS V14.01,2013-11-10 07:23:00,
2013-11-10 01:24:00,41.2,16.3,24.95,NW,312,3.1,3.1,36,0.00,,---,0.00,VWS V14.01,2013-11-10 07:24:00,
2013-11-10 01:25:00,41.4,15.1,24.95,NW,312,3.1,3.1,34,0.00,,---,0.00,VWS V14.01,2013-11-10 07:25:00,
2013-11-10 01:26:00,41.2,16.3,24.95,NW,312,3.1,3.1,36,0.00,,---,0.00,VWS V14.01,2013-11-10 07:26:00,
2013-11-10 01:27:00,41.4,15.1,24.95,NW,312,3.1,3.1,34,0.00,,---,0.00,VWS V14.01,2013-11-10 07:27:00,
2013-11-10 01:28:00,41.4,15.1,24.95,NW,312,3.1,3.1,34,0.00,,---,0.00,VWS V14.01,2013-11-10 07:28:00,
2013-11-10 01:29:00,40.8,15.9,24.95,NW,308,4.0,4.0,36,0.00,,---,0.00,VWS V14.01,2013-11-10 07:29:00,
2013-11-10 01:30:00,41.4,15.1,24.95,NW,312,3.1,3.1,34,0.00,,---,0.00,VWS V14.01,2013-11-10 07:30:00,
2013-11-10 01:31:00,66.7,24.4,25.01,NW,313,2.7,4.5,20,0.00,,---,0.00,VWS V14.01,2013-11-10 07:31:00,
2013-11-10 01:32:00,36.7,16.3,24.92,NW,316,3.6,4.0,43,0.00,,---,0.00,VWS V14.01,2013-11-10 07:32:00,
2013-11-10 01:33:00,36.7,16.3,24.92,NW,316,3.6,4.0,43,0.00,,---,0.00,VWS V14.01,2013-11-10 07:33:00,
2013-11-10 01:34:00,36.7,16.3,24.95,NW,316,3.6,4.0,43,0.00,,---,0.00,VWS V14.01,2013-11-10 07:34:00,
2013-11-10 01:35:00,41.2,16.3,24.95,NW,312,3.1,3.1,36,0.00,,---,0.00,VWS V14.01,2013-11-10 07:35:00,
2013-11-10 01:36:00,41.2,16.3,24.95,NW,312,3.1,3.1,36,0.00,,---,0.00,VWS V14.01,2013-11-10 07:36:00,
2013-11-10 01:37:00,36.7,16.3,24.95,NW,316,3.6,4.0,43,0.00,,---,0.00,VWS V14.01,2013-11-10 07:37:00,
2013-11-10 01:38:00,40.8,15.9,24.95,NW,308,4.0,4.0,36,0.00,,---,0.00,VWS V14.01,2013-11-10 07:38:00,
2013-11-10 01:39:00,36.7,16.3,24.95,NW,316,3.1,4.0,43,0.00,,---,0.00,VWS V14.01,2013-11-10 07:39:00,
2013-11-10 01:40:00,40.8,15.9,24.95,NW,308,4.0,4.0,36,0.00,,---,0.00,VWS V14.01,2013-11-10 07:40:00,
2013-11-10 01:41:00,40.8,15.9,24.95,NW,308,4.0,4.0,36,0.00,,---,0.00,VWS V14.01,2013-11-10 07:41:00,
2013-11-10 01:42:00,37.4,17.0,24.92,NW,326,4.0,4.0,43,0.00,,---,0.00,VWS V14.01,2013-11-10 07:42:00,
2013-11-10 01:43:00,40.8,15.9,24.95,NW,308,4.0,4.0,36,0.00,,---,0.00,VWS V14.01,2013-11-10 07:43:00,
2013-11-10 01:44:00,36.9,15.9,24.92,NW,326,4.0,4.0,42,0.00,,---,0.00,VWS V14.01,2013-11-10 07:44:00,
2013-11-10 01:45:00,40.8,15.9,24.95,NW,308,4.0,4.0,36,0.00,,---,0.00,VWS V14.01,2013-11-10 07:45:00,
2013-11-10 01:46:00,40.8,15.9,24.95,NW,308,4.0,4.0,36,0.00,,---,0.00,VWS V14.01,2013-11-10 07:46:00,
2013-11-10 01:47:00,36.9,15.9,24.92,NW,326,4.0,4.0,42,0.00,,---,0.00,VWS V14.01,2013-11-10 07:47:00,
2013-11-10 01:48:00,40.8,17.2,24.95,NW,308,4.0,4.0,38,0.00,,---,0.00,VWS V14.01,2013-11-10 07:48:00,
2013-11-10 01:49:00,40.8,17.2,24.95,NW,308,4.0,4.0,38,0.00,,---,0.00,VWS V14.01,2013-11-10 07:49:00,
2013-11-10 01:50:00,40.6,16.4,24.95,NW,308,4.0,4.0,37,0.00,,---,0.00,VWS V14.01,2013-11-10 07:50:00,
2013-11-10 01:51:00,40.6,16.4,24.95,NW,308,4.0,4.0,37,0.00,,---,0.00,VWS V14.01,2013-11-10 07:51:00,
2013-11-10 01:52:00,36.9,15.4,24.95,NW,308,4.0,4.0,41,0.00,,---,0.00,VWS V14.01,2013-11-10 07:52:00,
2013-11-10 01:53:00,40.5,16.3,24.95,NW,308,4.0,4.0,37,0.00,,---,0.00,VWS V14.01,2013-11-10 07:53:00,
2013-11-10 01:54:00,40.5,16.3,24.95,NW,308,4.0,4.0,37,0.00,,---,0.00,VWS V14.01,2013-11-10 07:54:00,
2013-11-10 01:55:00,36.9,15.4,24.95,NW,308,4.0,4.0,41,0.00,,---,0.00,VWS V14.01,2013-11-10 07:55:00,
2013-11-10 01:56:00,40.5,16.3,24.95,NW,308,4.0,4.0,37,0.00,,---,0.00,VWS V14.01,2013-11-10 07:56:00,
2013-11-10 01:57:00,40.5,16.3,24.95,NW,308,4.0,4.0,37,0.00,,---,0.00,VWS V14.01,2013-11-10 07:57:00,
2013-11-10 01:58:00,40.5,16.3,24.95,NW,308,4.0,4.0,37,0.00,,---,0.00,VWS V14.01,2013-11-10 07:58:00,
2013-11-10 01:59:00,40.5,16.3,24.95,NW,308,4.0,4.0,37,0.00,,---,0.00,VWS V14.01,2013-11-10 07:59:00,
2013-11-10 02:00:00,40.3,16.7,24.95,NW,308,4.0,4.0,38,0.00,,---,0.00,VWS V14.01,2013-11-10 08:00:00,
2013-11-10 02:01:00,40.3,16.7,24.95,NW,308,4.0,4.0,38,0.00,,---,0.00,VWS V14.01,2013-11-10 08:01:00,
2013-11-10 02:02:00,40.3,16.7,24.95,NW,308,4.0,4.0,38,0.00,,---,0.00,VWS V14.01,2013-11-10 08:02:00,
2013-11-10 02:03:00,40.3,16.7,24.95,NW,308,4.0,4.0,38,0.00,,---,0.00,VWS V14.01,2013-11-10 08:03:00,
2013-11-10 02:04:00,40.3,16.7,24.95,NW,308,4.0,4.0,38,0.00,,---,0.00,VWS V14.01,2013-11-10 08:04:00,
2013-11-10 02:05:00,40.3,16.7,24.95,NW,308,4.0,4.0,38,0.00,,---,0.00,VWS V14.01,2013-11-10 08:05:00,
2013-11-10 02:06:00,40.3,16.7,24.95,NW,308,4.0,4.0,38,0.00,,---,0.00,VWS V14.01,2013-11-10 08:06:00,
2013-11-10 02:07:00,40.3,16.7,24.95,NW,308,4.0,4.0,38,0.00,,---,0.00,VWS V14.01,2013-11-10 08:07:00,
2013-11-10 02:08:00,40.3,16.7,24.95,NW,308,4.0,4.0,38,0.00,,---,0.00,VWS V14.01,2013-11-10 08:08:00,
2013-11-10 02:09:00,40.3,16.7,24.95,NW,308,4.0,4.0,38,0.00,,---,0.00,VWS V14.01,2013-11-10 08:09:00,
2013-11-10 02:10:00,40.3,16.7,24.95,NW,308,4.0,4.0,38,0.00,,---,0.00,VWS V14.01,2013-11-10 08:10:00,
2013-11-10 02:11:00,40.3,16.7,24.95,NW,308,4.0,4.0,38,0.00,,---,0.00,VWS V14.01,2013-11-10 08:11:00,
2013-11-10 02:12:00,40.3,16.7,24.95,NW,308,4.0,4.0,38,0.00,,---,0.00,VWS V14.01,2013-11-10 08:12:00,
2013-11-10 02:13:00,40.3,16.7,24.95,NW,308,4.0,4.0,38,0.00,,---,0.00,VWS V14.01,2013-11-10 08:13:00,
2013-11-10 02:14:00,40.3,16.7,24.95,NW,308,4.0,4.0,38,0.00,,---,0.00,VWS V14.01,2013-11-10 08:14:00,
2013-11-10 02:15:00,38.7,16.4,24.95,NW,308,4.0,4.0,40,0.00,,---,0.00,VWS V14.01,2013-11-10 08:15:00,
2013-11-10 02:16:00,40.3,16.7,24.95,NW,308,4.0,4.0,38,0.00,,---,0.00,VWS V14.01,2013-11-10 08:16:00,
2013-11-10 02:17:00,40.3,16.7,24.95,NW,308,4.0,4.0,38,0.00,,---,0.00,VWS V14.01,2013-11-10 08:17:00,
2013-11-10 02:18:00,39.6,16.7,24.95,NW,308,4.0,4.0,39,0.00,,---,0.00,VWS V14.01,2013-11-10 08:18:00,
2013-11-10 02:19:00,39.6,16.7,24.95,NW,308,4.0,4.0,39,0.00,,---,0.00,VWS V14.01,2013-11-10 08:19:00,
2013-11-10 02:20:00,37.4,17.0,24.95,NW,326,2.2,4.0,43,0.00,,---,0.00,VWS V14.01,2013-11-10 08:20:00,
2013-11-10 02:21:00,39.6,16.7,24.95,NW,308,4.0,4.0,39,0.00,,---,0.00,VWS V14.01,2013-11-10 08:21:00,
2013-11-10 02:22:00,39.6,16.7,24.95,NW,308,4.0,4.0,39,0.00,,---,0.00,VWS V14.01,2013-11-10 08:22:00,
2013-11-10 02:23:00,39.6,16.7,24.95,NW,308,4.0,4.0,39,0.00,,---,0.00,VWS V14.01,2013-11-10 08:23:00,
2013-11-10 02:24:00,37.4,17.0,24.95,NW,326,2.2,4.0,43,0.00,,---,0.00,VWS V14.01,2013-11-10 08:24:00,
2013-11-10 02:25:00,39.2,16.3,24.95,NW,308,4.0,4.0,39,0.00,,---,0.00,VWS V14.01,2013-11-10 08:25:00,
2013-11-10 02:26:00,39.2,16.3,24.95,NW,308,4.0,4.0,39,0.00,,---,0.00,VWS V14.01,2013-11-10 08:26:00,
2013-11-10 02:27:00,39.2,16.3,24.95,NW,308,4.0,4.0,39,0.00,,---,0.00,VWS V14.01,2013-11-10 08:27:00,
2013-11-10 02:28:00,39.2,16.3,24.95,NW,308,4.0,4.0,39,0.00,,---,0.00,VWS V14.01,2013-11-10 08:28:00,
2013-11-10 02:29:00,38.1,15.9,24.95,NW,308,4.0,4.0,40,0.00,,---,0.00,VWS V14.01,2013-11-10 08:29:00,
2013-11-10 02:30:00,39.2,16.3,24.95,NW,308,4.0,4.0,39,0.00,,---,0.00,VWS V14.01,2013-11-10 08:30:00,
2013-11-10 02:32:00,39.2,16.3,24.95,NW,308,4.0,4.0,39,0.00,,---,0.00,VWS V14.01,2013-11-10 08:32:00,
2013-11-10 02:33:00,39.2,16.3,24.95,NW,308,4.0,4.0,39,0.00,,---,0.00,VWS V14.01,2013-11-10 08:33:00,
2013-11-10 02:35:00,39.2,16.3,24.95,NW,308,4.0,4.0,39,0.00,,---,0.00,VWS V14.01,2013-11-10 08:35:00,
2013-11-10 02:39:00,38.8,16.0,24.95,NW,308,4.0,4.0,39,0.00,,---,0.00,VWS V14.01,2013-11-10 08:39:00,
2013-11-10 02:40:00,38.8,16.0,24.95,NW,308,4.0,4.0,39,0.00,,---,0.00,VWS V14.01,2013-11-10 08:40:00,
2013-11-10 02:41:00,38.8,16.0,24.95,NW,308,4.0,4.0,39,0.00,,---,0.00,VWS V14.01,2013-11-10 08:41:00,
2013-11-10 02:43:00,38.8,16.0,24.95,NW,308,4.0,4.0,39,0.00,,---,0.00,VWS V14.01,2013-11-10 08:43:00,
2013-11-10 02:49:00,38.8,16.6,24.95,NW,308,4.0,4.0,40,0.00,,---,0.00,VWS V14.01,2013-11-10 08:49:00,
2013-11-10 02:54:00,38.8,16.6,24.95,NW,308,4.0,4.0,40,0.00,,---,0.00,VWS V14.01,2013-11-10 08:54:00,
2013-11-10 02:58:00,38.7,16.4,24.95,NW,308,4.0,4.0,40,0.00,,---,0.00,VWS V14.01,2013-11-10 08:58:00,
2013-11-10 03:01:00,38.7,16.4,24.95,NW,308,4.0,4.0,40,0.00,,---,0.00,VWS V14.01,2013-11-10 09:01:00,
2013-11-10 03:02:00,38.7,16.4,24.95,NW,308,4.0,4.0,40,0.00,,---,0.00,VWS V14.01,2013-11-10 09:02:00,
2013-11-10 03:06:00,38.5,16.3,24.95,NW,308,4.0,4.0,40,0.00,,---,0.00,VWS V14.01,2013-11-10 09:06:00,
2013-11-10 03:07:00,38.5,16.3,24.95,NW,308,4.0,4.0,40,0.00,,---,0.00,VWS V14.01,2013-11-10 09:07:00,
2013-11-10 03:08:00,38.5,16.3,24.95,NW,308,4.0,4.0,40,0.00,,---,0.00,VWS V14.01,2013-11-10 09:08:00,
2013-11-10 03:10:00,38.5,16.3,24.95,NW,308,4.0,4.0,40,0.00,,---,0.00,VWS V14.01,2013-11-10 09:10:00,
2013-11-10 03:12:00,38.7,16.4,24.95,NW,308,4.0,4.0,40,0.00,,---,0.00,VWS V14.01,2013-11-10 09:12:00,
2013-11-10 03:13:00,38.7,16.4,24.95,NW,308,4.0,4.0,40,0.00,,---,0.00,VWS V14.01,2013-11-10 09:13:00,
2013-11-10 03:14:00,38.7,16.4,24.95,NW,308,4.0,4.0,40,0.00,,---,0.00,VWS V14.01,2013-11-10 09:14:00,
2013-11-10 03:15:00,38.7,16.4,24.95,NW,308,4.0,4.0,40,0.00,,---,0.00,VWS V14.01,2013-11-10 09:15:00,
2013-11-10 03:17:00,38.7,16.4,24.95,NW,308,4.0,4.0,40,0.00,,---,0.00,VWS V14.01,2013-11-10 09:17:00,
2013-11-10 03:18:00,38.7,16.4,24.95,NW,308,4.0,4.0,40,0.00,,---,0.00,VWS V14.01,2013-11-10 09:18:00,
2013-11-10 03:19:00,38.7,16.4,24.95,NW,308,4.0,4.0,40,0.00,,---,0.00,VWS V14.01,2013-11-10 09:19:00,
2013-11-10 03:20:00,38.7,16.4,24.95,NW,308,4.0,4.0,40,0.00,,---,0.00,VWS V14.01,2013-11-10 09:20:00,
2013-11-10 03:22:00,38.7,16.4,24.95,NW,308,4.0,4.0,40,0.00,,---,0.00,VWS V14.01,2013-11-10 09:22:00,
2013-11-10 03:24:00,38.7,16.4,24.95,NW,308,4.0,4.0,40,0.00,,---,0.00,VWS V14.01,2013-11-10 09:24:00,
2013-11-10 03:25:00,38.7,16.4,24.95,NW,308,4.0,4.0,40,0.00,,---,0.00,VWS V14.01,2013-11-10 09:25:00,
2013-11-10 03:26:00,38.7,16.4,24.95,NW,308,4.0,4.0,40,0.00,,---,0.00,VWS V14.01,2013-11-10 09:26:00,
2013-11-10 03:27:00,38.7,16.4,24.95,NW,308,4.0,4.0,40,0.00,,---,0.00,VWS V14.01,2013-11-10 09:27:00,
2013-11-10 03:29:00,38.7,16.4,24.95,NW,308,4.0,4.0,40,0.00,,---,0.00,VWS V14.01,2013-11-10 09:29:00,
2013-11-10 03:30:00,38.7,16.4,24.95,NW,308,4.0,4.0,40,0.00,,---,0.00,VWS V14.01,2013-11-10 09:30:00,
2013-11-10 03:31:00,38.7,16.4,24.95,NW,308,4.0,4.0,40,0.00,,---,0.00,VWS V14.01,2013-11-10 09:31:00,
2013-11-10 03:32:00,38.7,16.4,24.95,NW,308,4.0,4.0,40,0.00,,---,0.00,VWS V14.01,2013-11-10 09:32:00,
2013-11-10 03:34:00,38.3,16.1,24.95,NW,308,4.0,4.0,40,0.00,,---,0.00,VWS V14.01,2013-11-10 09:34:00,
2013-11-10 03:35:00,38.1,15.9,24.95,NW,308,4.0,4.0,40,0.00,,---,0.00,VWS V14.01,2013-11-10 09:35:00,
2013-11-10 03:36:00,38.1,15.9,24.95,NW,308,4.0,4.0,40,0.00,,---,0.00,VWS V14.01,2013-11-10 09:36:00,
2013-11-10 03:40:00,38.1,15.9,24.95,NW,308,4.0,4.0,40,0.00,,---,0.00,VWS V14.01,2013-11-10 09:40:00,
2013-11-10 03:41:00,38.1,15.9,24.95,NW,308,4.0,4.0,40,0.00,,---,0.00,VWS V14.01,2013-11-10 09:41:00,
2013-11-10 03:42:00,37.8,15.6,24.95,NW,308,4.0,4.0,40,0.00,,---,0.00,VWS V14.01,2013-11-10 09:42:00,
2013-11-10 03:45:00,37.8,15.6,24.95,NW,308,4.0,4.0,40,0.00,,---,0.00,VWS V14.01,2013-11-10 09:45:00,
2013-11-10 03:46:00,37.8,15.6,24.95,NW,308,4.0,4.0,40,0.00,,---,0.00,VWS V14.01,2013-11-10 09:46:00,
2013-11-10 03:47:00,37.4,15.3,24.95,NW,308,4.0,4.0,40,0.00,,---,0.00,VWS V14.01,2013-11-10 09:47:00,
2013-11-10 03:49:00,37.4,15.3,24.95,NW,308,4.0,4.0,40,0.00,,---,0.00,VWS V14.01,2013-11-10 09:49:00,
2013-11-10 03:51:00,37.4,15.3,24.95,NW,308,4.0,4.0,40,0.00,,---,0.00,VWS V14.01,2013-11-10 09:51:00,
2013-11-10 03:53:00,37.4,15.3,24.95,NW,308,4.0,4.0,40,0.00,,---,0.00,VWS V14.01,2013-11-10 09:53:00,
2013-11-10 03:58:00,36.9,15.4,24.95,NW,308,4.0,4.0,41,0.00,,---,0.00,VWS V14.01,2013-11-10 09:58:00,
2013-11-10 03:59:00,36.9,15.4,24.95,NW,308,4.0,4.0,41,0.00,,---,0.00,VWS V14.01,2013-11-10 09:59:00,
2013-11-10 04:02:00,36.9,15.4,24.95,NW,308,4.0,4.0,41,0.00,,---,0.00,VWS V14.01,2013-11-10 10:02:00,
2013-11-10 04:03:00,36.9,15.4,24.95,NW,308,4.0,4.0,41,0.00,,---,0.00,VWS V14.01,2013-11-10 10:03:00,
2013-11-10 04:05:00,36.9,15.4,24.95,NW,308,4.0,4.0,41,0.00,,---,0.00,VWS V14.01,2013-11-10 10:05:00,
2013-11-10 04:07:00,36.9,15.4,24.95,NW,308,4.0,4.0,41,0.00,,---,0.00,VWS V14.01,2013-11-10 10:07:00,
2013-11-10 04:08:00,36.9,15.4,24.95,NW,326,2.7,4.0,41,0.00,,---,0.00,VWS V14.01,2013-11-10 10:08:00,
2013-11-10 04:10:00,36.9,15.4,24.95,NW,326,2.7,4.0,41,0.00,,---,0.00,VWS V14.01,2013-11-10 10:10:00,
2013-11-10 04:13:00,36.9,15.4,24.95,NW,326,2.2,4.0,41,0.00,,---,0.00,VWS V14.01,2013-11-10 10:13:00,
2013-11-10 04:14:00,36.9,15.4,24.95,NW,326,2.2,4.0,41,0.00,,---,0.00,VWS V14.01,2013-11-10 10:14:00,
2013-11-10 04:15:00,36.9,15.4,24.95,NW,326,2.2,4.0,41,0.00,,---,0.00,VWS V14.01,2013-11-10 10:15:00,
2013-11-10 04:18:00,36.9,15.9,24.95,NW,326,2.2,4.0,42,0.00,,---,0.00,VWS V14.01,2013-11-10 10:18:00,
2013-11-10 04:19:00,36.9,15.9,24.95,NW,326,2.2,4.0,42,0.00,,---,0.00,VWS V14.01,2013-11-10 10:19:00,
2013-11-10 04:22:00,37.0,16.6,24.95,NW,326,2.2,4.0,43,0.00,,---,0.00,VWS V14.01,2013-11-10 10:22:00,
2013-11-10 04:23:00,37.0,16.6,24.95,NW,326,2.2,4.0,43,0.00,,---,0.00,VWS V14.01,2013-11-10 10:23:00,
2013-11-10 04:24:00,37.0,16.6,24.95,NW,326,2.2,4.0,43,0.00,,---,0.00,VWS V14.01,2013-11-10 10:24:00,
2013-11-10 04:29:00,37.4,17.0,24.95,NW,326,2.2,4.0,43,0.00,,---,0.00,VWS V14.01,2013-11-10 10:29:00,
2013-11-10 04:31:00,37.4,17.0,24.95,NW,326,2.2,4.0,43,0.00,,---,0.00,VWS V14.01,2013-11-10 10:31:00,
2013-11-10 04:34:00,37.4,17.0,24.95,NW,326,4.0,4.0,43,0.00,,---,0.00,VWS V14.01,2013-11-10 10:34:00,
2013-11-10 04:36:00,37.4,17.0,24.92,NW,326,4.0,4.0,43,0.00,,---,0.00,VWS V14.01,2013-11-10 10:36:00,
2013-11-10 04:39:00,37.4,17.0,24.92,NW,326,4.0,4.0,43,0.00,,---,0.00,VWS V14.01,2013-11-10 10:39:00,
2013-11-10 04:48:00,36.9,15.9,24.92,NW,326,4.0,4.0,42,0.00,,---,0.00,VWS V14.01,2013-11-10 10:48:00,
2013-11-10 04:49:00,36.9,15.9,24.92,NW,326,4.0,4.0,42,0.00,,---,0.00,VWS V14.01,2013-11-10 10:49:00,
2013-11-10 04:53:00,36.9,15.9,24.92,NW,326,4.0,4.0,42,0.00,,---,0.00,VWS V14.01,2013-11-10 10:53:00,
2013-11-10 04:54:00,37.0,17.2,24.92,NW,326,4.0,4.0,44,0.00,,---,0.00,VWS V14.01,2013-11-10 10:54:00,
2013-11-10 04:55:00,37.4,17.0,24.92,NW,326,4.0,4.0,43,0.00,,---,0.00,VWS V14.01,2013-11-10 10:55:00,
2013-11-10 04:56:00,37.4,17.0,24.92,NW,326,4.0,4.0,43,0.00,,---,0.00,VWS V14.01,2013-11-10 10:56:00,
2013-11-10 04:58:00,37.4,17.0,24.92,NW,326,4.0,4.0,43,0.00,,---,0.00,VWS V14.01,2013-11-10 10:58:00,
2013-11-10 04:59:00,37.4,17.0,24.92,NW,326,4.0,4.0,43,0.00,,---,0.00,VWS V14.01,2013-11-10 10:59:00,
2013-11-10 05:00:00,37.4,17.0,24.92,NW,326,4.0,4.0,43,0.00,,---,0.00,VWS V14.01,2013-11-10 11:00:00,
2013-11-10 05:01:00,37.4,17.0,24.92,NW,326,4.0,4.0,43,0.00,,---,0.00,VWS V14.01,2013-11-10 11:01:00,
2013-11-10 05:02:00,37.4,17.0,24.92,NW,326,4.0,4.0,43,0.00,,---,0.00,VWS V14.01,2013-11-10 11:02:00,
2013-11-10 05:03:00,37.4,17.0,24.92,NW,326,4.0,4.0,43,0.00,,---,0.00,VWS V14.01,2013-11-10 11:03:00,
2013-11-10 05:04:00,37.4,17.0,24.92,NW,326,4.0,4.0,43,0.00,,---,0.00,VWS V14.01,2013-11-10 11:04:00,
2013-11-10 05:06:00,37.4,17.0,24.92,NW,326,4.0,4.0,43,0.00,,---,0.00,VWS V14.01,2013-11-10 11:06:00,
2013-11-10 05:07:00,37.4,17.0,24.92,NW,326,4.0,4.0,43,0.00,,---,0.00,VWS V14.01,2013-11-10 11:07:00,
2013-11-10 05:13:00,37.9,17.5,24.95,NW,326,4.0,4.0,43,0.00,,---,0.00,VWS V14.01,2013-11-10 11:13:00,
2013-11-10 05:14:00,37.9,17.5,24.95,NW,326,4.0,4.0,43,0.00,,---,0.00,VWS V14.01,2013-11-10 11:14:00,
2013-11-10 05:17:00,37.9,17.5,24.95,NW,326,4.0,4.0,43,0.00,,---,0.00,VWS V14.01,2013-11-10 11:17:00,
2013-11-10 05:18:00,37.9,17.5,24.95,NW,326,4.0,4.0,43,0.00,,---,0.00,VWS V14.01,2013-11-10 11:18:00,
2013-11-10 05:19:00,37.9,17.5,24.95,NW,326,4.0,4.0,43,0.00,,---,0.00,VWS V14.01,2013-11-10 11:19:00,
2013-11-10 05:22:00,37.9,17.5,24.95,NW,326,4.0,4.0,43,0.00,,---,0.00,VWS V14.01,2013-11-10 11:22:00,
2013-11-10 05:23:00,36.7,16.3,24.95,NW,326,4.0,4.0,43,0.00,,---,0.00,VWS V14.01,2013-11-10 11:23:00,
2013-11-10 05:24:00,36.7,16.3,24.95,NW,326,4.0,4.0,43,0.00,,---,0.00,VWS V14.01,2013-11-10 11:24:00,
2013-11-10 05:28:00,36.7,16.3,24.95,NW,326,4.0,4.0,43,0.00,,---,0.00,VWS V14.01,2013-11-10 11:28:00,
2013-11-10 05:29:00,36.7,16.3,24.95,NW,326,4.0,4.0,43,0.00,,---,0.00,VWS V14.01,2013-11-10 11:29:00,
2013-11-10 05:35:00,36.7,16.3,24.95,NW,316,3.6,4.0,43,0.00,,---,0.00,VWS V14.01,2013-11-10 11:35:00,
2013-11-10 05:37:00,36.7,16.3,24.95,NW,316,3.6,4.0,43,0.00,,---,0.00,VWS V14.01,2013-11-10 11:37:00,
2013-11-10 05:38:00,36.7,16.3,24.95,NW,316,3.6,4.0,43,0.00,,---,0.00,VWS V14.01,2013-11-10 11:38:00,
2013-11-10 05:40:00,36.7,16.3,24.95,NW,316,3.1,4.0,43,0.00,,---,0.00,VWS V14.01,2013-11-10 11:40:00,
2013-11-10 05:42:00,36.7,16.3,24.95,NW,316,3.1,4.0,43,0.00,,---,0.00,VWS V14.01,2013-11-10 11:42:00,
2013-11-10 05:43:00,36.7,16.3,24.95,NW,316,3.1,4.0,43,0.00,,---,0.00,VWS V14.01,2013-11-10 11:43:00,
2013-11-10 05:45:00,36.7,16.3,24.95,NW,316,3.1,4.0,43,0.00,,---,0.00,VWS V14.01,2013-11-10 11:45:00,
2013-11-10 05:46:00,36.7,16.3,24.95,NW,316,3.1,4.0,43,0.00,,---,0.00,VWS V14.01,2013-11-10 11:46:00,
2013-11-10 05:47:00,36.7,16.3,24.95,NW,316,3.1,4.0,43,0.00,,---,0.00,VWS V14.01,2013-11-10 11:47:00,
2013-11-10 05:48:00,36.7,16.3,24.95,NW,316,3.1,4.0,43,0.00,,---,0.00,VWS V14.01,2013-11-10 11:48:00,
2013-11-10 05:49:00,36.7,16.3,24.95,NW,316,3.1,4.0,43,0.00,,---,0.00,VWS V14.01,2013-11-10 11:49:00,
2013-11-10 05:51:00,36.7,16.3,24.95,NW,316,3.1,4.0,43,0.00,,---,0.00,VWS V14.01,2013-11-10 11:51:00,
2013-11-10 05:52:00,36.1,15.8,24.95,NW,321,0.0,4.0,43,0.00,,---,0.00,VWS V14.01,2013-11-10 11:52:00,
2013-11-10 05:53:00,36.1,15.8,24.95,NW,321,0.0,4.0,43,0.00,,---,0.00,VWS V14.01,2013-11-10 11:53:00,
2013-11-10 05:54:00,36.1,15.8,24.95,NW,321,0.0,4.0,43,0.00,,---,0.00,VWS V14.01,2013-11-10 11:54:00,
2013-11-10 05:56:00,36.0,15.6,24.95,NW,321,0.0,4.0,43,0.00,,---,0.00,VWS V14.01,2013-11-10 11:56:00,
2013-11-10 05:59:00,35.8,15.5,24.95,NW,321,0.0,4.0,43,0.00,,---,0.00,VWS V14.01,2013-11-10 11:59:00,
2013-11-10 06:00:00,35.8,15.5,24.95,NW,321,0.0,4.0,43,0.00,,---,0.00,VWS V14.01,2013-11-10 12:00:00,
2013-11-10 06:02:00,35.8,15.5,24.95,NW,321,0.0,4.0,43,0.00,,---,0.00,VWS V14.01,2013-11-10 12:02:00,
2013-11-10 06:03:00,35.8,15.5,24.95,NW,321,0.0,4.0,43,0.00,,---,0.00,VWS V14.01,2013-11-10 12:03:00,
2013-11-10 06:04:00,35.8,15.5,24.95,NW,321,0.0,4.0,43,0.00,,---,0.00,VWS V14.01,2013-11-10 12:04:00,
2013-11-10 06:05:00,35.8,15.5,24.95,NW,321,0.0,4.0,43,0.00,,---,0.00,VWS V14.01,2013-11-10 12:05:00,
2013-11-10 06:07:00,35.8,15.5,24.95,NW,321,0.0,4.0,43,0.00,,---,0.00,VWS V14.01,2013-11-10 12:07:00,
2013-11-10 06:09:00,35.8,15.5,24.95,NW,322,3.1,4.0,43,0.00,,---,0.00,VWS V14.01,2013-11-10 12:09:00,
2013-11-10 06:10:00,35.4,15.7,24.95,NW,322,3.1,4.0,44,0.00,,---,0.00,VWS V14.01,2013-11-10 12:10:00,
2013-11-10 06:11:00,35.4,15.7,24.95,NW,322,3.1,4.0,44,0.00,,---,0.00,VWS V14.01,2013-11-10 12:11:00,
2013-11-10 06:12:00,35.4,15.7,24.95,NW,322,3.1,4.0,44,0.00,,---,0.00,VWS V14.01,2013-11-10 12:12:00,
2013-11-10 06:14:00,35.4,15.7,24.95,NW,322,2.7,4.0,44,0.00,,---,0.00,VWS V14.01,2013-11-10 12:14:00,
2013-11-10 06:15:00,35.4,15.7,24.95,NW,322,2.7,4.0,44,0.00,,---,0.00,VWS V14.01,2013-11-10 12:15:00,
2013-11-10 06:16:00,35.4,15.7,24.95,NW,322,2.7,4.0,44,0.00,,---,0.00,VWS V14.01,2013-11-10 12:16:00,
2013-11-10 06:17:00,35.4,15.7,24.95,NW,322,3.1,4.0,44,0.00,,---,0.00,VWS V14.01,2013-11-10 12:17:00,
2013-11-10 06:20:00,35.6,15.9,24.95,NW,322,3.1,4.0,44,0.00,,---,0.00,VWS V14.01,2013-11-10 12:20:00,
2013-11-10 06:21:00,35.6,15.9,24.95,NW,322,3.1,4.0,44,0.00,,---,0.00,VWS V14.01,2013-11-10 12:21:00,
2013-11-10 06:22:00,35.6,15.9,24.95,NW,322,3.1,4.0,44,0.00,,---,0.00,VWS V14.01,2013-11-10 12:22:00,
2013-11-10 06:23:00,35.6,15.9,24.95,NW,322,3.1,4.0,44,0.00,,---,0.00,VWS V14.01,2013-11-10 12:23:00,
2013-11-10 06:24:00,35.6,15.9,24.95,NW,322,3.1,4.0,44,0.00,,---,0.00,VWS V14.01,2013-11-10 12:24:00,
2013-11-10 06:28:00,35.6,15.9,24.95,NW,322,0.0,4.0,44,0.00,,---,0.00,VWS V14.01,2013-11-10 12:28:00,
2013-11-10 06:30:00,35.6,15.9,24.95,NW,322,0.0,4.0,44,0.00,,---,0.00,VWS V14.01,2013-11-10 12:30:00,
2013-11-10 06:31:00,35.6,15.9,24.95,NW,322,0.0,4.0,44,0.00,,---,0.00,VWS V14.01,2013-11-10 12:31:00,
2013-11-10 06:50:00,35.6,16.4,24.95,NW,322,0.0,4.0,45,0.00,,---,0.00,VWS V14.01,2013-11-10 12:50:00,
2013-11-10 06:51:00,35.6,16.4,24.95,NW,322,0.0,4.0,45,0.00,,---,0.00,VWS V14.01,2013-11-10 12:51:00,
2013-11-10 06:53:00,35.6,16.4,24.95,NW,322,3.1,4.0,45,0.00,,---,0.00,VWS V14.01,2013-11-10 12:53:00,
2013-11-10 06:54:00,35.6,16.4,24.95,NW,322,3.1,4.0,45,0.00,,---,0.00,VWS V14.01,2013-11-10 12:54:00,
2013-11-10 06:55:00,35.6,16.4,24.95,NW,322,3.1,4.0,45,0.00,,---,0.00,VWS V14.01,2013-11-10 12:55:00,
2013-11-10 06:56:00,35.6,16.4,24.95,NW,322,3.1,4.0,45,0.00,,---,0.00,VWS V14.01,2013-11-10 12:56:00,
2013-11-10 06:58:00,35.6,16.4,24.95,NW,322,3.1,4.0,45,0.00,,---,0.00,VWS V14.01,2013-11-10 12:58:00,
2013-11-10 06:59:00,35.6,16.4,24.95,NW,322,0.0,4.0,45,0.00,,---,0.00,VWS V14.01,2013-11-10 12:59:00,
2013-11-10 07:00:00,35.6,16.4,24.95,NW,322,2.7,4.0,45,0.00,,---,0.00,VWS V14.01,2013-11-10 13:00:00,
2013-11-10 07:01:00,35.6,16.4,24.95,NW,322,2.7,4.0,45,0.00,,---,0.00,VWS V14.01,2013-11-10 13:01:00,
2013-11-10 07:02:00,35.6,16.4,24.95,NW,322,2.7,4.0,45,0.00,,---,0.00,VWS V14.01,2013-11-10 13:02:00,
2013-11-10 07:04:00,35.6,16.4,24.95,NW,322,2.7,4.0,45,0.00,,---,0.00,VWS V14.01,2013-11-10 13:04:00,
2013-11-10 07:06:00,35.6,16.4,24.98,NW,322,2.7,4.0,45,0.00,,---,0.00,VWS V14.01,2013-11-10 13:06:00,
2013-11-10 07:07:00,35.6,16.4,24.98,NW,322,2.7,4.0,45,0.00,,---,0.00,VWS V14.01,2013-11-10 13:07:00,
2013-11-10 07:10:00,35.6,16.4,24.98,NW,322,2.7,4.0,45,0.00,,---,0.00,VWS V14.01,2013-11-10 13:10:00,
2013-11-10 07:11:00,35.6,16.4,24.98,NW,322,2.7,4.0,45,0.00,,---,0.00,VWS V14.01,2013-11-10 13:11:00,
2013-11-10 07:12:00,35.6,16.4,24.98,NW,322,2.7,4.0,45,0.00,,---,0.00,VWS V14.01,2013-11-10 13:12:00,
2013-11-10 07:13:00,35.6,16.4,24.98,NW,322,2.7,4.0,45,0.00,,---,0.00,VWS V14.01,2013-11-10 13:13:00,
2013-11-10 07:15:00,35.6,16.4,24.98,NW,322,2.7,4.0,45,0.00,,---,0.00,VWS V14.01,2013-11-10 13:15:00,
2013-11-10 07:16:00,35.6,16.4,24.98,NW,322,2.7,4.0,45,0.00,,---,0.00,VWS V14.01,2013-11-10 13:16:00,
2013-11-10 07:17:00,35.6,16.4,24.98,NW,322,2.7,4.0,45,0.00,,---,0.00,VWS V14.01,2013-11-10 13:17:00,
2013-11-10 07:18:00,35.6,16.4,24.98,NW,322,2.7,4.0,45,0.00,,---,0.00,VWS V14.01,2013-11-10 13:18:00,
2013-11-10 07:20:00,35.1,16.4,24.98,NW,322,2.7,4.0,46,0.00,,---,0.00,VWS V14.01,2013-11-10 13:20:00,
2013-11-10 07:21:00,35.1,16.4,24.98,NW,322,2.7,4.0,46,0.00,,---,0.00,VWS V14.01,2013-11-10 13:21:00,
2013-11-10 07:22:00,35.1,16.4,24.98,NW,322,2.7,4.0,46,0.00,,---,0.00,VWS V14.01,2013-11-10 13:22:00,
2013-11-10 07:23:00,35.1,16.4,24.98,NW,322,2.7,4.0,46,0.00,,---,0.00,VWS V14.01,2013-11-10 13:23:00,
2013-11-10 07:24:00,35.1,16.4,24.98,NW,322,2.7,4.0,46,0.00,,---,0.00,VWS V14.01,2013-11-10 13:24:00,
2013-11-10 07:25:00,35.1,16.4,24.98,NW,322,2.7,4.0,46,0.00,,---,0.00,VWS V14.01,2013-11-10 13:25:00,
2013-11-10 07:26:00,35.1,16.4,24.98,NW,322,2.7,4.0,46,0.00,,---,0.00,VWS V14.01,2013-11-10 13:26:00,
2013-11-10 07:28:00,35.1,16.4,24.98,NW,322,2.7,4.0,46,0.00,,---,0.00,VWS V14.01,2013-11-10 13:28:00,
2013-11-10 07:39:00,35.4,16.7,24.98,NW,322,0.0,4.0,46,0.00,,---,0.00,VWS V14.01,2013-11-10 13:39:00,
2013-11-10 07:40:00,37.8,19.4,24.98,NW,322,0.0,4.0,47,0.00,,---,0.00,VWS V14.01,2013-11-10 13:40:00,
2013-11-10 07:41:00,38.1,19.7,24.98,NW,322,0.0,4.0,47,0.00,,---,0.00,VWS V14.01,2013-11-10 13:41:00,
2013-11-10 07:43:00,38.1,19.7,24.98,NW,322,0.0,4.0,47,0.00,,---,0.00,VWS V14.01,2013-11-10 13:43:00,
2013-11-10 07:44:00,38.1,19.7,24.98,NW,322,0.0,4.0,47,0.00,,---,0.00,VWS V14.01,2013-11-10 13:44:00,
2013-11-10 07:45:00,38.1,19.7,24.98,NW,322,0.0,4.0,47,0.00,,---,0.00,VWS V14.01,2013-11-10 13:45:00,
2013-11-10 07:46:00,38.1,19.7,24.98,NW,322,0.0,4.0,47,0.00,,---,0.00,VWS V14.01,2013-11-10 13:46:00,
2013-11-10 07:47:00,38.1,19.7,24.98,NW,322,0.0,4.0,47,0.00,,---,0.00,VWS V14.01,2013-11-10 13:47:00,
2013-11-10 07:48:00,40.5,21.8,24.98,NW,322,0.0,4.0,47,0.00,,---,0.00,VWS V14.01,2013-11-10 13:48:00,
2013-11-10 07:50:00,40.5,21.8,24.98,NW,322,0.0,4.0,47,0.00,,---,0.00,VWS V14.01,2013-11-10 13:50:00,
2013-11-10 07:51:00,40.5,21.8,24.98,NW,322,0.0,4.0,47,0.00,,---,0.00,VWS V14.01,2013-11-10 13:51:00,
2013-11-10 07:53:00,42.3,23.0,24.98,NW,322,0.0,4.0,46,0.00,,---,0.00,VWS V14.01,2013-11-10 13:53:00,
2013-11-10 07:54:00,42.3,23.0,24.98,NW,322,0.0,4.0,46,0.00,,---,0.00,VWS V14.01,2013-11-10 13:54:00,
2013-11-10 07:55:00,42.3,23.0,24.98,NW,322,0.0,4.0,46,0.00,,---,0.00,VWS V14.01,2013-11-10 13:55:00,
2013-11-10 07:58:00,42.3,23.0,24.98,NW,322,0.0,4.0,46,0.00,,---,0.00,VWS V14.01,2013-11-10 13:58:00,
2013-11-10 07:59:00,42.3,23.0,24.98,NW,322,0.0,4.0,46,0.00,,---,0.00,VWS V14.01,2013-11-10 13:59:00,
2013-11-10 08:01:00,44.2,23.2,24.98,NW,322,0.0,4.0,43,0.00,,---,0.00,VWS V14.01,2013-11-10 14:01:00,
2013-11-10 08:03:00,44.2,23.2,24.98,NW,322,0.0,4.0,43,0.00,,---,0.00,VWS V14.01,2013-11-10 14:03:00,
2013-11-10 08:04:00,44.2,23.2,24.98,NW,322,0.0,4.0,43,0.00,,---,0.00,VWS V14.01,2013-11-10 14:04:00,
2013-11-10 08:06:00,44.2,23.2,24.98,NW,322,0.0,4.0,43,0.00,,---,0.00,VWS V14.01,2013-11-10 14:06:00,
2013-11-10 08:08:00,44.2,23.2,24.98,NW,322,0.0,4.0,43,0.00,,---,0.00,VWS V14.01,2013-11-10 14:08:00,
2013-11-10 08:09:00,44.2,23.2,24.98,NW,322,4.5,4.5,43,0.00,,---,0.00,VWS V14.01,2013-11-10 14:09:00,
2013-11-10 08:11:00,44.2,23.2,24.98,NW,322,4.5,4.5,43,0.00,,---,0.00,VWS V14.01,2013-11-10 14:11:00,
2013-11-10 08:15:00,44.2,23.2,24.98,NW,322,4.5,4.5,43,0.00,,---,0.00,VWS V14.01,2013-11-10 14:15:00,
2013-11-10 08:16:00,44.2,23.2,24.98,NW,322,4.5,4.5,43,0.00,,---,0.00,VWS V14.01,2013-11-10 14:16:00,
2013-11-10 08:20:00,47.1,22.2,24.98,NW,322,4.5,4.5,37,0.00,,---,0.00,VWS V14.01,2013-11-10 14:20:00,
2013-11-10 08:23:00,47.1,22.2,24.98,NW,322,4.5,4.5,37,0.00,,---,0.00,VWS V14.01,2013-11-10 14:23:00,
2013-11-10 08:24:00,47.1,22.2,24.98,NW,322,4.5,4.5,37,0.00,,---,0.00,VWS V14.01,2013-11-10 14:24:00,
2013-11-10 08:25:00,47.1,22.2,24.98,NW,322,4.5,4.5,37,0.00,,---,0.00,VWS V14.01,2013-11-10 14:25:00,
2013-11-10 08:26:00,47.1,22.2,24.98,NW,322,4.5,4.5,37,0.00,,---,0.00,VWS V14.01,2013-11-10 14:26:00,
2013-11-10 08:28:00,47.1,22.2,24.98,NW,313,3.6,4.5,37,0.00,,---,0.00,VWS V14.01,2013-11-10 14:28:00,
2013-11-10 08:29:00,47.1,22.2,24.98,NW,313,3.6,4.5,37,0.00,,---,0.00,VWS V14.01,2013-11-10 14:29:00,
2013-11-10 08:30:00,47.1,22.2,24.98,NW,313,3.6,4.5,37,0.00,,---,0.00,VWS V14.01,2013-11-10 14:30:00,
2013-11-10 08:36:00,49.5,20.1,25.01,NW,313,3.1,4.5,31,0.00,,---,0.00,VWS V14.01,2013-11-10 14:36:00,
2013-11-10 08:37:00,49.5,20.1,25.01,NW,313,3.1,4.5,31,0.00,,---,0.00,VWS V14.01,2013-11-10 14:37:00,
2013-11-10 08:45:00,52.0,20.7,25.01,NW,313,2.7,4.5,29,0.00,,---,0.00,VWS V14.01,2013-11-10 14:45:00,
2013-11-10 08:47:00,54.1,21.8,25.01,NW,313,2.7,4.5,28,0.00,,---,0.00,VWS V14.01,2013-11-10 14:47:00,
2013-11-10 08:49:00,54.1,21.8,25.01,NW,313,2.7,4.5,28,0.00,,---,0.00,VWS V14.01,2013-11-10 14:49:00,
2013-11-10 08:50:00,54.1,21.8,25.01,NW,313,2.7,4.5,28,0.00,,---,0.00,VWS V14.01,2013-11-10 14:50:00,
2013-11-10 08:51:00,54.1,21.8,25.01,NW,313,2.7,4.5,28,0.00,,---,0.00,VWS V14.01,2013-11-10 14:51:00,
2013-11-10 08:52:00,54.1,21.8,25.01,NW,313,2.7,4.5,28,0.00,,---,0.00,VWS V14.01,2013-11-10 14:52:00,
2013-11-10 08:53:00,54.1,21.8,25.01,NW,313,2.7,4.5,28,0.00,,---,0.00,VWS V14.01,2013-11-10 14:53:00,
2013-11-10 08:54:00,54.1,21.8,25.01,NW,313,2.7,4.5,28,0.00,,---,0.00,VWS V14.01,2013-11-10 14:54:00,
2013-11-10 08:55:00,54.1,21.8,25.01,NW,313,2.7,4.5,28,0.00,,---,0.00,VWS V14.01,2013-11-10 14:55:00,
2013-11-10 08:59:00,58.1,23.4,25.01,NW,313,2.7,4.5,26,0.00,,---,0.00,VWS V14.01,2013-11-10 14:59:00,
2013-11-10 09:00:00,58.1,23.4,25.01,NW,313,2.7,4.5,26,0.00,,---,0.00,VWS V14.01,2013-11-10 15:00:00,
2013-11-10 09:02:00,58.1,23.4,25.01,NW,313,2.7,4.5,26,0.00,,---,0.00,VWS V14.01,2013-11-10 15:02:00,
2013-11-10 09:05:00,60.3,24.3,25.01,NW,313,2.7,4.5,25,0.00,,---,0.00,VWS V14.01,2013-11-10 15:05:00,
2013-11-10 09:06:00,60.3,24.3,25.01,NW,313,2.7,4.5,25,0.00,,---,0.00,VWS V14.01,2013-11-10 15:06:00,
2013-11-10 09:07:00,60.3,24.3,25.01,NW,313,2.7,4.5,25,0.00,,---,0.00,VWS V14.01,2013-11-10 15:07:00,
2013-11-10 09:08:00,60.3,24.3,25.01,NW,313,2.7,4.5,25,0.00,,---,0.00,VWS V14.01,2013-11-10 15:08:00,
2013-11-10 09:10:00,60.3,24.3,25.01,NW,313,2.7,4.5,25,0.00,,---,0.00,VWS V14.01,2013-11-10 15:10:00,
2013-11-10 09:12:00,60.3,24.3,25.01,NW,313,2.7,4.5,25,0.00,,---,0.00,VWS V14.01,2013-11-10 15:12:00,
2013-11-10 09:13:00,60.3,24.3,25.01,NW,313,2.7,4.5,25,0.00,,---,0.00,VWS V14.01,2013-11-10 15:13:00,
2013-11-10 09:14:00,63.9,25.4,25.01,NW,313,2.7,4.5,23,0.00,,---,0.00,VWS V14.01,2013-11-10 15:14:00,
2013-11-10 09:15:00,64.2,25.7,25.01,NW,313,2.7,4.5,23,0.00,,---,0.00,VWS V14.01,2013-11-10 15:15:00,
2013-11-10 09:18:00,64.2,25.7,25.01,NW,313,2.7,4.5,23,0.00,,---,0.00,VWS V14.01,2013-11-10 15:18:00,
2013-11-10 09:19:00,64.2,25.7,25.01,NW,313,2.7,4.5,23,0.00,,---,0.00,VWS V14.01,2013-11-10 15:19:00,
2013-11-10 09:20:00,64.2,25.7,25.01,NW,313,2.7,4.5,23,0.00,,---,0.00,VWS V14.01,2013-11-10 15:20:00,
2013-11-10 09:24:00,65.8,23.7,25.01,NW,313,2.7,4.5,20,0.00,,---,0.00,VWS V14.01,2013-11-10 15:24:00,
2013-11-10 09:25:00,65.8,23.7,25.01,NW,313,2.7,4.5,20,0.00,,---,0.00,VWS V14.01,2013-11-10 15:25:00,
2013-11-10 09:27:00,66.7,24.4,25.01,NW,313,2.7,4.5,20,0.00,,---,0.00,VWS V14.01,2013-11-10 15:27:00,
2013-11-10 09:29:00,66.7,24.4,25.01,NW,313,2.7,4.5,20,0.00,,---,0.00,VWS V14.01,2013-11-10 15:29:00,
2013-11-10 09:30:00,66.7,24.4,25.01,NW,313,2.7,4.5,20,0.00,,---,0.00,VWS V14.01,2013-11-10 15:30:00,
2013-11-10 09:35:00,66.7,24.4,25.01,NW,313,2.7,4.5,20,0.00,,---,0.00,VWS V14.01,2013-11-10 15:35:00,
2013-11-10 09:37:00,66.7,24.4,25.01,NW,313,2.7,4.5,20,0.00,,---,0.00,VWS V14.01,2013-11-10 15:37:00,
2013-11-10 09:38:00,66.7,24.4,25.01,NW,313,2.7,4.5,20,0.00,,---,0.00,VWS V14.01,2013-11-10 15:38:00,
2013-11-10 09:40:00,66.7,24.4,25.01,NW,313,2.7,4.5,20,0.00,,---,0.00,VWS V14.01,2013-11-10 15:40:00,
2013-11-10 09:41:00,66.7,24.4,25.01,NW,313,2.7,4.5,20,0.00,,---,0.00,VWS V14.01,2013-11-10 15:41:00,
2013-11-10 09:42:00,66.7,24.4,25.01,NW,313,2.7,4.5,20,0.00,,---,0.00,VWS V14.01,2013-11-10 15:42:00,
2013-11-10 09:43:00,66.7,24.4,25.01,NW,311,0.0,4.5,20,0.00,,---,0.00,VWS V14.01,2013-11-10 15:43:00,
2013-11-10 09:44:00,66.7,24.4,25.01,NW,311,0.0,4.5,20,0.00,,---,0.00,VWS V14.01,2013-11-10 15:44:00,
2013-11-10 09:45:00,66.7,24.4,25.01,NW,311,0.0,4.5,20,0.00,,---,0.00,VWS V14.01,2013-11-10 15:45:00,
2013-11-10 09:46:00,66.7,24.4,25.01,NW,311,0.0,4.5,20,0.00,,---,0.00,VWS V14.01,2013-11-10 15:46:00,
2013-11-10 09:48:00,68.9,22.3,25.01,NW,311,0.0,4.5,17,0.00,,---,0.00,VWS V14.01,2013-11-10 15:48:00,
2013-11-10 09:50:00,68.9,22.3,25.01,NW,311,0.0,4.5,17,0.00,,---,0.00,VWS V14.01,2013-11-10 15:50:00,
2013-11-10 09:51:00,68.9,22.3,25.01,NW,311,0.0,4.5,17,0.00,,---,0.00,VWS V14.01,2013-11-10 15:51:00,
2013-11-10 09:53:00,68.9,22.3,25.01,NW,311,0.0,4.5,17,0.00,,---,0.00,VWS V14.01,2013-11-10 15:53:00,
2013-11-10 09:55:00,68.9,22.3,25.01,NW,311,0.0,4.5,17,0.00,,---,0.00,VWS V14.01,2013-11-10 15:55:00,
2013-11-10 09:56:00,68.9,22.3,25.01,NW,311,0.0,4.5,17,0.00,,---,0.00,VWS V14.01,2013-11-10 15:56:00,
2013-11-10 09:59:00,68.9,22.3,25.01,NW,311,0.0,4.5,17,0.00,,---,0.00,VWS V14.01,2013-11-10 15:59:00,
2013-11-10 10:00:00,68.9,22.3,25.01,NW,311,0.0,4.5,17,0.00,,---,0.00,VWS V14.01,2013-11-10 16:00:00,
2013-11-10 10:01:00,68.9,22.3,25.01,NW,311,0.0,4.5,17,0.00,,---,0.00,VWS V14.01,2013-11-10 16:01:00,
2013-11-10 10:02:00,68.9,22.3,25.01,NW,311,0.0,4.5,17,0.00,,---,0.00,VWS V14.01,2013-11-10 16:02:00,
2013-11-10 10:04:00,68.9,22.3,25.01,NW,311,0.0,4.5,17,0.00,,---,0.00,VWS V14.01,2013-11-10 16:04:00,
2013-11-10 10:06:00,68.9,22.3,25.01,SSE,167,3.6,4.5,17,0.00,,---,0.00,VWS V14.01,2013-11-10 16:06:00,
2013-11-10 10:07:00,68.9,22.3,25.01,SSE,167,3.6,4.5,17,0.00,,---,0.00,VWS V14.01,2013-11-10 16:07:00,
2013-11-10 10:09:00,68.9,22.3,25.01,SSE,167,3.6,4.5,17,0.00,,---,0.00,VWS V14.01,2013-11-10 16:09:00,
2013-11-10 10:12:00,68.9,22.3,25.01,SSE,167,3.6,4.5,17,0.00,,---,0.00,VWS V14.01,2013-11-10 16:12:00,
2013-11-10 10:13:00,70.5,23.6,25.01,SSE,167,3.6,4.5,17,0.00,,---,0.00,VWS V14.01,2013-11-10 16:13:00,
2013-11-10 10:16:00,70.5,23.6,25.01,SSE,167,3.6,4.5,17,0.00,,---,0.00,VWS V14.01,2013-11-10 16:16:00,
2013-11-10 10:17:00,70.5,23.6,25.01,SSE,167,3.6,4.5,17,0.00,,---,0.00,VWS V14.01,2013-11-10 16:17:00,
2013-11-10 10:18:00,70.5,23.6,25.01,SSE,167,3.6,4.5,17,0.00,,---,0.00,VWS V14.01,2013-11-10 16:18:00,
2013-11-10 10:20:00,70.5,23.6,25.01,SSE,151,3.1,4.5,17,0.00,,---,0.00,VWS V14.01,2013-11-10 16:20:00,
2013-11-10 10:22:00,70.5,23.6,25.04,SE,129,4.9,4.9,17,0.00,,---,0.00,VWS V14.01,2013-11-10 16:22:00,
2013-11-10 10:23:00,70.5,23.6,25.04,SE,129,4.9,4.9,17,0.00,,---,0.00,VWS V14.01,2013-11-10 16:23:00,
2013-11-10 10:25:00,70.5,23.6,25.04,SE,129,4.9,4.9,17,0.00,,---,0.00,VWS V14.01,2013-11-10 16:25:00,
2013-11-10 10:28:00,70.5,23.6,25.04,SE,129,4.9,4.9,17,0.00,,---,0.00,VWS V14.01,2013-11-10 16:28:00,
2013-11-10 10:31:00,70.5,23.6,25.04,SSE,148,3.6,4.9,17,0.00,,---,0.00,VWS V14.01,2013-11-10 16:31:00,
2013-11-10 10:39:00,70.5,23.6,25.04,SE,133,5.4,8.3,17,0.00,,---,0.00,VWS V14.01,2013-11-10 16:39:00,
2013-11-10 10:40:00,70.5,23.6,25.04,SE,133,5.4,8.3,17,0.00,,---,0.00,VWS V14.01,2013-11-10 16:40:00,
2013-11-10 10:41:00,70.5,23.6,25.04,SE,129,4.0,8.3,17,0.00,,---,0.00,VWS V14.01,2013-11-10 16:41:00,
2013-11-10 10:44:00,70.5,23.6,25.04,ESE,120,6.3,8.3,17,0.00,,---,0.00,VWS V14.01,2013-11-10 16:44:00,
2013-11-10 10:45:00,70.5,23.6,25.04,ESE,120,6.3,8.3,17,0.00,,---,0.00,VWS V14.01,2013-11-10 16:45:00,
2013-11-10 10:46:00,70.5,23.6,25.04,ESE,110,5.4,8.3,17,0.00,,---,0.00,VWS V14.01,2013-11-10 16:46:00,
2013-11-10 10:47:00,70.5,23.6,25.04,ESE,110,5.4,8.3,17,0.00,,---,0.00,VWS V14.01,2013-11-10 16:47:00,
2013-11-10 10:50:00,70.5,23.6,25.04,South,183,6.3,8.3,17,0.00,,---,0.00,VWS V14.01,2013-11-10 16:50:00,
2013-11-10 10:51:00,70.5,23.6,25.04,SSE,154,4.9,8.3,17,0.00,,---,0.00,VWS V14.01,2013-11-10 16:51:00,
2013-11-10 10:52:00,70.5,23.6,25.04,ESE,118,5.4,8.3,17,0.00,,---,0.00,VWS V14.01,2013-11-10 16:52:00,
2013-11-10 10:55:00,70.5,23.6,25.04,ESE,118,5.4,8.3,17,0.00,,---,0.00,VWS V14.01,2013-11-10 16:55:00,
2013-11-10 10:57:00,70.5,23.6,25.04,ESE,118,5.4,8.3,17,0.00,,---,0.00,VWS V14.01,2013-11-10 16:57:00,
2013-11-10 11:00:00,70.5,23.6,25.04,ESE,118,5.4,8.3,17,0.00,,---,0.00,VWS V14.01,2013-11-10 17:00:00,
2013-11-10 11:01:00,70.5,23.6,25.04,ESE,118,5.4,8.3,17,0.00,,---,0.00,VWS V14.01,2013-11-10 17:01:00,
2013-11-10 11:02:00,70.5,23.6,25.04,ESE,118,5.4,8.3,17,0.00,,---,0.00,VWS V14.01,2013-11-10 17:02:00,
2013-11-10 11:05:00,70.5,23.6,25.04,ESE,118,5.4,8.3,17,0.00,,---,0.00,VWS V14.01,2013-11-10 17:05:00,
2013-11-10 11:06:00,70.5,23.6,25.04,ESE,118,5.4,8.3,17,0.00,,---,0.00,VWS V14.01,2013-11-10 17:06:00,
2013-11-10 11:08:00,70.5,23.6,25.04,ESE,118,5.4,8.3,17,0.00,,---,0.00,VWS V14.01,2013-11-10 17:08:00,
2013-11-10 11:10:00,70.5,23.6,25.04,ESE,118,5.4,8.3,17,0.00,,---,0.00,VWS V14.01,2013-11-10 17:10:00,
2013-11-10 11:11:00,73.2,24.4,25.04,ESE,118,5.4,8.3,16,0.00,,---,0.00,VWS V14.01,2013-11-10 17:11:00,
2013-11-10 11:12:00,73.2,24.4,25.04,ESE,118,5.4,8.3,16,0.00,,---,0.00,VWS V14.01,2013-11-10 17:12:00,
2013-11-10 11:13:00,73.2,24.4,25.04,ESE,118,5.4,8.3,16,0.00,,---,0.00,VWS V14.01,2013-11-10 17:13:00,
2013-11-10 11:15:00,73.2,24.4,25.04,ESE,118,5.4,8.3,16,0.00,,---,0.00,VWS V14.01,2013-11-10 17:15:00,
2013-11-10 11:16:00,73.2,24.4,25.04,ESE,118,5.4,8.3,16,0.00,,---,0.00,VWS V14.01,2013-11-10 17:16:00,
2013-11-10 11:17:00,73.2,24.4,25.04,ESE,118,5.4,8.3,16,0.00,,---,0.00,VWS V14.01,2013-11-10 17:17:00,
2013-11-10 11:18:00,73.2,24.4,25.04,ESE,118,5.4,8.3,16,0.00,,---,0.00,VWS V14.01,2013-11-10 17:18:00,
2013-11-10 11:22:00,73.2,24.4,25.04,ESE,118,5.4,8.3,16,0.00,,---,0.00,VWS V14.01,2013-11-10 17:22:00,
2013-11-10 11:23:00,73.2,24.4,25.04,ESE,118,5.4,8.3,16,0.00,,---,0.00,VWS V14.01,2013-11-10 17:23:00,
2013-11-10 11:24:00,73.2,24.4,25.04,ESE,118,5.4,8.3,16,0.00,,---,0.00,VWS V14.01,2013-11-10 17:24:00,
2013-11-10 11:25:00,73.2,24.4,25.04,ESE,118,5.4,8.3,16,0.00,,---,0.00,VWS V14.01,2013-11-10 17:25:00,
2013-11-10 11:26:00,73.2,24.4,25.04,ESE,118,5.4,8.3,16,0.00,,---,0.00,VWS V14.01,2013-11-10 17:26:00,
2013-11-10 11:27:00,73.2,24.4,25.04,ESE,118,5.4,8.3,16,0.00,,---,0.00,VWS V14.01,2013-11-10 17:27:00,
2013-11-10 11:28:00,74.7,25.5,25.04,ESE,118,5.4,8.3,16,0.00,,---,0.00,VWS V14.01,2013-11-10 17:28:00,
2013-11-10 11:30:00,74.7,25.5,25.04,ESE,118,5.4,8.3,16,0.00,,---,0.00,VWS V14.01,2013-11-10 17:30:00,
2013-11-10 11:33:00,75.0,25.8,25.04,ESE,118,5.4,8.3,16,0.00,,---,0.00,VWS V14.01,2013-11-10 17:33:00,
2013-11-10 11:34:00,75.0,25.8,25.04,ESE,118,5.4,5.4,16,0.00,,---,0.00,VWS V14.01,2013-11-10 17:34:00,
2013-11-10 11:35:00,75.0,25.8,25.04,ESE,118,5.4,5.4,16,0.00,,---,0.00,VWS V14.01,2013-11-10 17:35:00,
2013-11-10 11:38:00,75.0,25.8,25.04,ESE,118,5.4,5.4,16,0.00,,---,0.00,VWS V14.01,2013-11-10 17:38:00,
2013-11-10 11:39:00,75.0,25.8,25.04,ESE,118,5.4,5.4,16,0.00,,---,0.00,VWS V14.01,2013-11-10 17:39:00,
2013-11-10 11:40:00,75.0,25.8,25.04,ESE,118,5.4,5.4,16,0.00,,---,0.00,VWS V14.01,2013-11-10 17:40:00,
2013-11-10 11:44:00,75.0,25.8,25.04,ESE,118,5.4,5.4,16,0.00,,---,0.00,VWS V14.01,2013-11-10 17:44:00,
2013-11-10 11:45:00,75.0,25.8,25.04,ESE,118,5.4,5.4,16,0.00,,---,0.00,VWS V14.01,2013-11-10 17:45:00,
2013-11-10 11:49:00,75.0,25.8,25.04,WSW,248,5.8,5.8,16,0.00,,---,0.00,VWS V14.01,2013-11-10 17:49:00,
2013-11-10 11:50:00,75.0,25.8,25.04,WSW,248,5.8,5.8,16,0.00,,---,0.00,VWS V14.01,2013-11-10 17:50:00,
2013-11-10 11:54:00,75.0,25.8,25.04,WSW,248,5.8,5.8,16,0.00,,---,0.00,VWS V14.01,2013-11-10 17:54:00,
2013-11-10 11:55:00,75.0,25.8,25.04,WSW,248,5.8,5.8,16,0.00,,---,0.00,VWS V14.01,2013-11-10 17:55:00,
2013-11-10 11:56:00,75.0,25.8,25.04,WSW,248,5.8,5.8,16,0.00,,---,0.00,VWS V14.01,2013-11-10 17:56:00,
2013-11-10 11:59:00,75.0,25.8,25.04,WSW,248,5.8,5.8,16,0.00,,---,0.00,VWS V14.01,2013-11-10 17:59:00,
2013-11-10 12:00:00,75.0,25.8,25.04,WSW,248,5.8,5.8,16,0.00,,---,0.00,VWS V14.01,2013-11-10 18:00:00,
2013-11-10 12:01:00,75.0,25.8,25.04,WSW,248,5.8,5.8,16,0.00,,---,0.00,VWS V14.01,2013-11-10 18:01:00,
2013-11-10 12:02:00,76.5,25.4,25.01,WSW,248,5.8,5.8,15,0.00,,---,0.00,VWS V14.01,2013-11-10 18:02:00,
2013-11-10 12:03:00,74.1,25.1,25.04,WSW,248,5.8,5.8,16,0.00,,---,0.00,VWS V14.01,2013-11-10 18:03:00,
2013-11-10 12:04:00,75.0,25.8,25.04,WSW,248,5.8,5.8,16,0.00,,---,0.00,VWS V14.01,2013-11-10 18:04:00,
2013-11-10 12:05:00,75.0,25.8,25.04,WSW,248,5.8,5.8,16,0.00,,---,0.00,VWS V14.01,2013-11-10 18:05:00,
2013-11-10 12:06:00,75.0,25.8,25.04,WSW,248,5.8,5.8,16,0.00,,---,0.00,VWS V14.01,2013-11-10 18:06:00,
2013-11-10 12:07:00,74.1,25.1,25.04,WSW,248,5.8,5.8,16,0.00,,---,0.00,VWS V14.01,2013-11-10 18:07:00,
2013-11-10 12:08:00,74.1,25.1,25.04,WSW,248,5.8,5.8,16,0.00,,---,0.00,VWS V14.01,2013-11-10 18:08:00,
2013-11-10 12:09:00,74.1,25.1,25.04,WSW,248,5.8,5.8,16,0.00,,---,0.00,VWS V14.01,2013-11-10 18:09:00,
2013-11-10 12:10:00,76.1,25.1,25.04,WSW,248,5.8,5.8,15,0.00,,---,0.00,VWS V14.01,2013-11-10 18:10:00,
2013-11-10 12:11:00,75.6,24.7,25.04,WSW,248,5.8,5.8,15,0.00,,---,0.00,VWS V14.01,2013-11-10 18:11:00,
2013-11-10 12:12:00,75.6,24.7,25.04,WSW,248,5.8,5.8,15,0.00,,---,0.00,VWS V14.01,2013-11-10 18:12:00,
2013-11-10 12:13:00,74.1,25.1,25.04,WSW,248,5.8,5.8,16,0.00,,---,0.00,VWS V14.01,2013-11-10 18:13:00,
2013-11-10 12:14:00,77.2,26.0,25.01,WSW,248,5.8,5.8,15,0.00,,---,0.00,VWS V14.01,2013-11-10 18:14:00,
2013-11-10 12:15:00,75.6,24.7,25.04,WSW,248,5.8,5.8,15,0.00,,---,0.00,VWS V14.01,2013-11-10 18:15:00,
2013-11-10 12:16:00,75.6,24.7,25.04,WSW,248,5.8,5.8,15,0.00,,---,0.00,VWS V14.01,2013-11-10 18:16:00,
2013-11-10 12:17:00,75.6,24.7,25.04,WSW,248,5.8,5.8,15,0.00,,---,0.00,VWS V14.01,2013-11-10 18:17:00,
2013-11-10 12:18:00,75.0,25.8,25.04,WSW,248,5.8,5.8,16,0.00,,---,0.00,VWS V14.01,2013-11-10 18:18:00,
2013-11-10 12:19:00,75.0,25.8,25.04,WSW,248,5.8,5.8,16,0.00,,---,0.00,VWS V14.01,2013-11-10 18:19:00,
2013-11-10 12:20:00,75.0,25.8,25.04,WSW,248,5.8,5.8,16,0.00,,---,0.00,VWS V14.01,2013-11-10 18:20:00,
2013-11-10 12:21:00,75.0,25.8,25.04,WSW,248,5.8,5.8,16,0.00,,---,0.00,VWS V14.01,2013-11-10 18:21:00,
2013-11-10 12:22:00,75.0,25.8,25.04,WSW,248,5.8,5.8,16,0.00,,---,0.00,VWS V14.01,2013-11-10 18:22:00,
2013-11-10 12:23:00,75.0,25.8,25.04,WSW,248,5.8,5.8,16,0.00,,---,0.00,VWS V14.01,2013-11-10 18:23:00,
2013-11-10 12:24:00,75.0,25.8,25.04,WSW,248,5.8,5.8,16,0.00,,---,0.00,VWS V14.01,2013-11-10 18:24:00,
2013-11-10 12:25:00,75.0,25.8,25.04,WSW,248,5.8,5.8,16,0.00,,---,0.00,VWS V14.01,2013-11-10 18:25:00,
2013-11-10 12:26:00,74.1,25.1,25.04,WSW,248,5.8,5.8,16,0.00,,---,0.00,VWS V14.01,2013-11-10 18:26:00,
2013-11-10 12:27:00,74.1,25.1,25.04,WSW,248,5.8,5.8,16,0.00,,---,0.00,VWS V14.01,2013-11-10 18:27:00,
2013-11-10 12:28:00,74.5,25.4,25.01,WSW,248,5.8,5.8,16,0.00,,---,0.00,VWS V14.01,2013-11-10 18:28:00,
2013-11-10 12:29:00,74.5,25.4,25.01,WSW,248,5.8,5.8,16,0.00,,---,0.00,VWS V14.01,2013-11-10 18:29:00,
2013-11-10 12:31:00,74.1,25.1,25.04,WSW,248,5.8,5.8,16,0.00,,---,0.00,VWS V14.01,2013-11-10 18:31:00,
2013-11-10 12:32:00,74.1,25.1,25.04,WSW,248,5.8,5.8,16,0.00,,---,0.00,VWS V14.01,2013-11-10 18:32:00,
2013-11-10 12:35:00,77.0,25.9,25.01,WSW,248,5.8,5.8,15,0.00,,---,0.00,VWS V14.01,2013-11-10 18:35:00,
2013-11-10 12:36:00,75.9,25.0,25.01,WSW,248,5.8,5.8,15,0.00,,---,0.00,VWS V14.01,2013-11-10 18:36:00,
2013-11-10 12:37:00,75.9,25.0,25.01,WSW,248,5.8,5.8,15,0.00,,---,0.00,VWS V14.01,2013-11-10 18:37:00,
2013-11-10 12:38:00,74.1,25.1,25.04,WSW,248,5.8,5.8,16,0.00,,---,0.00,VWS V14.01,2013-11-10 18:38:00,
2013-11-10 12:39:00,75.9,25.0,25.01,WSW,248,5.8,5.8,15,0.00,,---,0.00,VWS V14.01,2013-11-10 18:39:00,
2013-11-10 12:40:00,74.1,25.1,25.04,WSW,248,5.8,5.8,16,0.00,,---,0.00,VWS V14.01,2013-11-10 18:40:00,
2013-11-10 12:41:00,74.1,25.1,25.04,WSW,248,5.8,5.8,16,0.00,,---,0.00,VWS V14.01,2013-11-10 18:41:00,
2013-11-10 12:42:00,74.1,25.1,25.04,WSW,248,5.8,5.8,16,0.00,,---,0.00,VWS V14.01,2013-11-10 18:42:00,
2013-11-10 12:43:00,74.1,25.1,25.04,WSW,248,5.8,5.8,16,0.00,,---,0.00,VWS V14.01,2013-11-10 18:43:00,
2013-11-10 12:44:00,76.1,25.1,25.01,WSW,248,5.8,5.8,15,0.00,,---,0.00,VWS V14.01,2013-11-10 18:44:00,
2013-11-10 12:45:00,76.1,25.1,25.01,WSW,248,5.8,5.8,15,0.00,,---,0.00,VWS V14.01,2013-11-10 18:45:00,
2013-11-10 12:46:00,74.1,25.1,25.04,WSW,248,5.8,5.8,16,0.00,,---,0.00,VWS V14.01,2013-11-10 18:46:00,
2013-11-10 12:47:00,74.1,25.1,25.04,WSW,248,5.8,5.8,16,0.00,,---,0.00,VWS V14.01,2013-11-10 18:47:00,
2013-11-10 12:48:00,75.0,25.8,25.04,WSW,248,5.8,5.8,16,0.00,,---,0.00,VWS V14.01,2013-11-10 18:48:00,
2013-11-10 12:49:00,75.0,25.8,25.04,WSW,248,5.8,5.8,16,0.00,,---,0.00,VWS V14.01,2013-11-10 18:49:00,
2013-11-10 12:50:00,76.1,25.1,25.01,WSW,248,5.8,5.8,15,0.00,,---,0.00,VWS V14.01,2013-11-10 18:50:00,
2013-11-10 12:51:00,75.0,25.8,25.04,WSW,248,5.8,5.8,16,0.00,,---,0.00,VWS V14.01,2013-11-10 18:51:00,
2013-11-10 12:52:00,75.4,24.6,25.01,WSW,248,5.8,5.8,15,0.00,,---,0.00,VWS V14.01,2013-11-10 18:52:00,
2013-11-10 12:53:00,75.4,24.6,25.01,WSW,248,5.8,5.8,15,0.00,,---,0.00,VWS V14.01,2013-11-10 18:53:00,
2013-11-10 12:54:00,75.0,25.8,25.04,WSW,248,5.8,5.8,16,0.00,,---,0.00,VWS V14.01,2013-11-10 18:54:00,
2013-11-10 12:55:00,75.0,25.8,25.04,WSW,248,5.8,5.8,16,0.00,,---,0.00,VWS V14.01,2013-11-10 18:55:00,
2013-11-10 12:56:00,75.2,24.4,25.01,WSW,248,5.8,5.8,15,0.00,,---,0.00,VWS V14.01,2013-11-10 18:56:00,
2013-11-10 12:57:00,74.5,25.4,25.01,WSW,248,5.8,5.8,16,0.00,,---,0.00,VWS V14.01,2013-11-10 18:57:00,
2013-11-10 12:58:00,75.2,24.4,25.01,WSW,248,5.8,5.8,15,0.00,,---,0.00,VWS V14.01,2013-11-10 18:58:00,
2013-11-10 12:59:00,74.5,25.4,25.01,WSW,248,5.8,5.8,16,0.00,,---,0.00,VWS V14.01,2013-11-10 18:59:00,
2013-11-10 13:00:00,75.2,24.4,25.01,WSW,248,5.8,5.8,15,0.00,,---,0.00,VWS V14.01,2013-11-10 19:00:00,
2013-11-10 13:01:00,75.2,24.4,25.01,WSW,248,5.8,5.8,15,0.00,,---,0.00,VWS V14.01,2013-11-10 19:01:00,
2013-11-10 13:02:00,75.6,24.7,25.01,WSW,248,5.8,5.8,15,0.00,,---,0.00,VWS V14.01,2013-11-10 19:02:00,
2013-11-10 13:03:00,75.6,24.7,25.01,WSW,248,5.8,5.8,15,0.00,,---,0.00,VWS V14.01,2013-11-10 19:03:00,
2013-11-10 13:04:00,74.5,25.4,25.01,WSW,248,5.8,5.8,16,0.00,,---,0.00,VWS V14.01,2013-11-10 19:04:00,
2013-11-10 13:05:00,74.5,25.4,25.01,WSW,248,5.8,5.8,16,0.00,,---,0.00,VWS V14.01,2013-11-10 19:05:00,
2013-11-10 13:06:00,75.2,24.4,25.01,WSW,248,5.8,5.8,15,0.00,,---,0.00,VWS V14.01,2013-11-10 19:06:00,
2013-11-10 13:07:00,75.6,24.7,25.01,WSW,248,5.8,5.8,15,0.00,,---,0.00,VWS V14.01,2013-11-10 19:07:00,
2013-11-10 13:08:00,75.2,24.4,25.01,WSW,248,5.8,5.8,15,0.00,,---,0.00,VWS V14.01,2013-11-10 19:08:00,
2013-11-10 13:09:00,75.9,25.0,25.01,WSW,248,5.8,5.8,15,0.00,,---,0.00,VWS V14.01,2013-11-10 19:09:00,
2013-11-10 13:10:00,75.9,25.0,25.01,WSW,248,5.8,5.8,15,0.00,,---,0.00,VWS V14.01,2013-11-10 19:10:00,
2013-11-10 13:11:00,75.6,24.7,25.01,WSW,248,5.8,5.8,15,0.00,,---,0.00,VWS V14.01,2013-11-10 19:11:00,
2013-11-10 13:12:00,75.9,25.0,25.01,WSW,248,5.8,5.8,15,0.00,,---,0.00,VWS V14.01,2013-11-10 19:12:00,
2013-11-10 13:13:00,75.6,24.7,25.01,WSW,248,5.8,5.8,15,0.00,,---,0.00,VWS V14.01,2013-11-10 19:13:00,
2013-11-10 13:14:00,75.9,25.0,25.01,WSW,248,5.8,5.8,15,0.00,,---,0.00,VWS V14.01,2013-11-10 19:14:00,
2013-11-10 13:15:00,75.9,25.0,25.01,WSW,248,5.8,5.8,15,0.00,,---,0.00,VWS V14.01,2013-11-10 19:15:00,
2013-11-10 13:16:00,75.6,24.7,25.01,WSW,248,5.8,5.8,15,0.00,,---,0.00,VWS V14.01,2013-11-10 19:16:00,
2013-11-10 13:17:00,75.9,25.0,25.01,WSW,248,5.8,5.8,15,0.00,,---,0.00,VWS V14.01,2013-11-10 19:17:00,
2013-11-10 13:18:00,75.6,24.7,25.01,WSW,248,5.8,5.8,15,0.00,,---,0.00,VWS V14.01,2013-11-10 19:18:00,
2013-11-10 13:19:00,75.9,25.0,25.01,WSW,248,5.8,5.8,15,0.00,,---,0.00,VWS V14.01,2013-11-10 19:19:00,
2013-11-10 13:20:00,75.9,25.0,25.01,WSW,248,5.8,5.8,15,0.00,,---,0.00,VWS V14.01,2013-11-10 19:20:00,
2013-11-10 13:21:00,75.9,25.0,25.01,WSW,248,5.8,5.8,15,0.00,,---,0.00,VWS V14.01,2013-11-10 19:21:00,
2013-11-10 13:22:00,75.9,25.0,25.01,WSW,248,5.8,5.8,15,0.00,,---,0.00,VWS V14.01,2013-11-10 19:22:00,
2013-11-10 13:23:00,75.6,24.7,25.01,WSW,248,5.8,5.8,15,0.00,,---,0.00,VWS V14.01,2013-11-10 19:23:00,
2013-11-10 13:24:00,75.9,25.0,25.01,WSW,248,5.8,5.8,15,0.00,,---,0.00,VWS V14.01,2013-11-10 19:24:00,
2013-11-10 13:25:00,75.9,25.0,25.01,WSW,248,5.8,5.8,15,0.00,,---,0.00,VWS V14.01,2013-11-10 19:25:00,
2013-11-10 13:26:00,76.5,25.4,25.01,WSW,248,5.8,5.8,15,0.00,,---,0.00,VWS V14.01,2013-11-10 19:26:00,
2013-11-10 13:27:00,77.0,25.9,25.01,WSW,248,5.8,5.8,15,0.00,,---,0.00,VWS V14.01,2013-11-10 19:27:00,
2013-11-10 13:28:00,77.0,25.9,25.01,WSW,248,5.8,5.8,15,0.00,,---,0.00,VWS V14.01,2013-11-10 19:28:00,
2013-11-10 13:29:00,77.0,25.9,25.01,WSW,248,5.8,5.8,15,0.00,,---,0.00,VWS V14.01,2013-11-10 19:29:00,
2013-11-10 13:31:00,76.5,25.4,25.01,WSW,248,5.8,5.8,15,0.00,,---,0.00,VWS V14.01,2013-11-10 19:31:00,
2013-11-10 13:32:00,76.5,25.4,25.01,WSW,248,5.8,5.8,15,0.00,,---,0.00,VWS V14.01,2013-11-10 19:32:00,
2013-11-10 13:34:00,77.5,26.3,25.01,WSW,248,5.8,5.8,15,0.00,,---,0.00,VWS V14.01,2013-11-10 19:34:00,
2013-11-10 13:36:00,77.2,26.0,25.01,WSW,248,5.8,5.8,15,0.00,,---,0.00,VWS V14.01,2013-11-10 19:36:00,
2013-11-10 13:37:00,77.2,26.0,25.01,WSW,248,5.8,5.8,15,0.00,,---,0.00,VWS V14.01,2013-11-10 19:37:00,
2013-11-10 13:38:00,77.2,26.0,25.01,WSW,248,5.8,5.8,15,0.00,,---,0.00,VWS V14.01,2013-11-10 19:38:00,
2013-11-10 13:39:00,77.2,26.0,25.01,WSW,248,5.8,5.8,15,0.00,,---,0.00,VWS V14.01,2013-11-10 19:39:00,
2013-11-10 13:41:00,77.2,26.0,25.01,WSW,248,5.8,5.8,15,0.00,,---,0.00,VWS V14.01,2013-11-10 19:41:00,
2013-11-10 13:44:00,77.2,26.0,25.01,WSW,248,5.8,5.8,15,0.00,,---,0.00,VWS V14.01,2013-11-10 19:44:00,
2013-11-10 13:46:00,77.2,26.0,25.01,WSW,248,5.8,5.8,15,0.00,,---,0.00,VWS V14.01,2013-11-10 19:46:00,
2013-11-10 13:48:00,77.2,26.0,25.01,WSW,248,5.8,5.8,15,0.00,,---,0.00,VWS V14.01,2013-11-10 19:48:00,
2013-11-10 13:50:00,77.2,26.0,25.01,WSW,248,5.8,5.8,15,0.00,,---,0.00,VWS V14.01,2013-11-10 19:50:00,
2013-11-10 13:52:00,77.2,26.0,25.01,WSW,248,5.8,5.8,15,0.00,,---,0.00,VWS V14.01,2013-11-10 19:52:00,
2013-11-10 13:54:00,77.2,26.0,25.01,WSW,248,5.8,5.8,15,0.00,,---,0.00,VWS V14.01,2013-11-10 19:54:00,
2013-11-10 13:55:00,77.2,26.0,25.01,WSW,248,5.8,5.8,15,0.00,,---,0.00,VWS V14.01,2013-11-10 19:55:00,
2013-11-10 13:59:00,75.4,24.6,25.01,WSW,248,5.8,5.8,15,0.00,,---,0.00,VWS V14.01,2013-11-10 19:59:00,
2013-11-10 14:02:00,75.4,24.6,25.01,WSW,248,5.8,5.8,15,0.00,,---,0.00,VWS V14.01,2013-11-10 20:02:00,
2013-11-10 14:04:00,75.2,24.4,25.01,WSW,248,5.8,5.8,15,0.00,,---,0.00,VWS V14.01,2013-11-10 20:04:00,
2013-11-10 14:08:00,75.2,24.4,25.01,WSW,248,5.8,5.8,15,0.00,,---,0.00,VWS V14.01,2013-11-10 20:08:00,
2013-11-10 14:10:00,75.6,24.7,25.01,WSW,248,5.8,5.8,15,0.00,,---,0.00,VWS V14.01,2013-11-10 20:10:00,
2013-11-10 14:11:00,75.6,24.7,25.01,WSW,248,5.8,5.8,15,0.00,,---,0.00,VWS V14.01,2013-11-10 20:11:00,
2013-11-10 14:12:00,75.6,24.7,25.01,WSW,248,5.8,5.8,15,0.00,,---,0.00,VWS V14.01,2013-11-10 20:12:00,
2013-11-10 14:13:00,75.6,24.7,25.01,WSW,248,5.8,5.8,15,0.00,,---,0.00,VWS V14.01,2013-11-10 20:13:00,
2013-11-10 14:16:00,75.6,24.7,25.01,WSW,248,5.8,5.8,15,0.00,,---,0.00,VWS V14.01,2013-11-10 20:16:00,
2013-11-10 14:17:00,75.6,24.7,25.01,WSW,248,5.8,5.8,15,0.00,,---,0.00,VWS V14.01,2013-11-10 20:17:00,
2013-11-10 14:19:00,75.6,24.7,25.01,WSW,248,5.8,5.8,15,0.00,,---,0.00,VWS V14.01,2013-11-10 20:19:00,
2013-11-10 14:21:00,75.6,24.7,25.01,WSW,248,5.8,5.8,15,0.00,,---,0.00,VWS V14.01,2013-11-10 20:21:00,
2013-11-10 14:22:00,75.6,24.7,25.01,WSW,248,5.8,5.8,15,0.00,,---,0.00,VWS V14.01,2013-11-10 20:22:00,
2013-11-10 14:23:00,75.6,24.7,25.01,WSW,248,5.8,5.8,15,0.00,,---,0.00,VWS V14.01,2013-11-10 20:23:00,
2013-11-10 14:24:00,75.6,24.7,25.01,WSW,248,5.8,5.8,15,0.00,,---,0.00,VWS V14.01,2013-11-10 20:24:00,
2013-11-10 14:25:00,75.6,24.7,25.01,WSW,248,5.8,5.8,15,0.00,,---,0.00,VWS V14.01,2013-11-10 20:25:00,
2013-11-10 14:27:00,75.6,24.7,25.01,WSW,248,5.8,5.8,15,0.00,,---,0.00,VWS V14.01,2013-11-10 20:27:00,
2013-11-10 14:28:00,75.6,24.7,25.01,WSW,248,5.8,5.8,15,0.00,,---,0.00,VWS V14.01,2013-11-10 20:28:00,
2013-11-10 14:29:00,75.6,24.7,25.01,WSW,248,5.8,5.8,15,0.00,,---,0.00,VWS V14.01,2013-11-10 20:29:00,
2013-11-10 14:30:00,75.6,24.7,25.01,WSW,248,5.8,5.8,15,0.00,,---,0.00,VWS V14.01,2013-11-10 20:30:00,
2013-11-10 14:33:00,75.6,24.7,25.01,WSW,248,5.8,5.8,15,0.00,,---,0.00,VWS V14.01,2013-11-10 20:33:00,
2013-11-10 14:35:00,77.0,25.9,25.01,WSW,248,5.8,5.8,15,0.00,,---,0.00,VWS V14.01,2013-11-10 20:35:00,
2013-11-10 14:36:00,77.0,25.9,25.01,WSW,248,5.8,5.8,15,0.00,,---,0.00,VWS V14.01,2013-11-10 20:36:00,
2013-11-10 14:37:00,77.0,25.9,25.01,WSW,248,5.8,5.8,15,0.00,,---,0.00,VWS V14.01,2013-11-10 20:37:00,
2013-11-10 14:38:00,77.0,25.9,25.01,WSW,248,5.8,5.8,15,0.00,,---,0.00,VWS V14.01,2013-11-10 20:38:00,
2013-11-10 14:42:00,75.9,25.0,25.01,WSW,248,5.8,5.8,15,0.00,,---,0.00,VWS V14.01,2013-11-10 20:42:00,
2013-11-10 14:44:00,75.9,25.0,25.01,WSW,248,5.8,5.8,15,0.00,,---,0.00,VWS V14.01,2013-11-10 20:44:00,
2013-11-10 14:45:00,75.9,25.0,25.01,WSW,248,5.8,5.8,15,0.00,,---,0.00,VWS V14.01,2013-11-10 20:45:00,
2013-11-10 14:46:00,75.9,25.0,25.01,WSW,248,5.8,5.8,15,0.00,,---,0.00,VWS V14.01,2013-11-10 20:46:00,
2013-11-10 14:47:00,76.1,25.1,25.01,WSW,248,5.8,5.8,15,0.00,,---,0.00,VWS V14.01,2013-11-10 20:47:00,
2013-11-10 14:49:00,76.1,25.1,25.01,WSW,248,5.8,5.8,15,0.00,,---,0.00,VWS V14.01,2013-11-10 20:49:00,
2013-11-10 14:50:00,76.1,25.1,24.98,WSW,248,5.8,5.8,15,0.00,,---,0.00,VWS V14.01,2013-11-10 20:50:00,
2013-11-10 14:54:00,76.1,25.1,24.98,WSW,248,5.8,5.8,15,0.00,,---,0.00,VWS V14.01,2013-11-10 20:54:00,
2013-11-10 14:55:00,76.1,25.1,24.98,WSW,248,5.8,5.8,15,0.00,,---,0.00,VWS V14.01,2013-11-10 20:55:00,
2013-11-10 14:59:00,76.1,25.1,24.98,WSW,248,5.8,5.8,15,0.00,,---,0.00,VWS V14.01,2013-11-10 20:59:00,
2013-11-10 15:00:00,76.1,25.1,24.98,WSW,248,5.8,5.8,15,0.00,,---,0.00,VWS V14.01,2013-11-10 21:00:00,
2013-11-10 15:01:00,76.1,25.1,24.98,WSW,248,5.8,5.8,15,0.00,,---,0.00,VWS V14.01,2013-11-10 21:01:00,
2013-11-10 15:02:00,75.2,24.4,24.98,WSW,248,5.8,5.8,15,0.00,,---,0.00,VWS V14.01,2013-11-10 21:02:00,
2013-11-10 15:04:00,75.2,24.4,24.98,WSW,248,5.8,5.8,15,0.00,,---,0.00,VWS V14.01,2013-11-10 21:04:00,
2013-11-10 15:05:00,75.2,24.4,24.98,WSW,248,5.8,5.8,15,0.00,,---,0.00,VWS V14.01,2013-11-10 21:05:00,
2013-11-10 15:06:00,75.2,24.4,24.98,WSW,248,5.8,5.8,15,0.00,,---,0.00,VWS V14.01,2013-11-10 21:06:00,
2013-11-10 15:07:00,75.2,24.4,24.98,WSW,248,5.8,5.8,15,0.00,,---,0.00,VWS V14.01,2013-11-10 21:07:00,
2013-11-10 15:09:00,75.2,24.4,25.01,WSW,248,5.8,5.8,15,0.00,,---,0.00,VWS V14.01,2013-11-10 21:09:00,
2013-11-10 15:10:00,75.2,24.4,25.01,WSW,248,5.8,5.8,15,0.00,,---,0.00,VWS V14.01,2013-11-10 21:10:00,
2013-11-10 15:11:00,75.2,24.4,25.01,WSW,248,5.8,5.8,15,0.00,,---,0.00,VWS V14.01,2013-11-10 21:11:00,
2013-11-10 15:12:00,75.2,24.4,25.01,WSW,248,5.8,5.8,15,0.00,,---,0.00,VWS V14.01,2013-11-10 21:12:00,
2013-11-10 15:13:00,75.2,24.4,25.01,WSW,248,5.8,5.8,15,0.00,,---,0.00,VWS V14.01,2013-11-10 21:13:00,
2013-11-10 15:18:00,75.2,24.4,25.01,WSW,248,5.8,5.8,15,0.00,,---,0.00,VWS V14.01,2013-11-10 21:18:00,
2013-11-10 15:22:00,75.2,24.4,25.01,WSW,248,5.8,5.8,15,0.00,,---,0.00,VWS V14.01,2013-11-10 21:22:00,
2013-11-10 15:23:00,75.2,24.4,25.01,WSW,248,5.8,5.8,15,0.00,,---,0.00,VWS V14.01,2013-11-10 21:23:00,
2013-11-10 15:25:00,75.7,24.9,25.01,WSW,248,5.8,5.8,15,0.00,,---,0.00,VWS V14.01,2013-11-10 21:25:00,
2013-11-10 15:26:00,75.7,24.9,25.01,WSW,248,5.8,5.8,15,0.00,,---,0.00,VWS V14.01,2013-11-10 21:26:00,
2013-11-10 15:27:00,75.7,24.9,25.01,WSW,248,5.8,5.8,15,0.00,,---,0.00,VWS V14.01,2013-11-10 21:27:00,
2013-11-10 15:28:00,75.7,24.9,25.01,WSW,248,5.8,5.8,15,0.00,,---,0.00,VWS V14.01,2013-11-10 21:28:00,
2013-11-10 15:29:00,75.7,24.9,25.01,WSW,248,5.8,5.8,15,0.00,,---,0.00,VWS V14.01,2013-11-10 21:29:00,
2013-11-10 15:30:00,75.7,24.9,25.01,WSW,248,5.8,5.8,15,0.00,,---,0.00,VWS V14.01,2013-11-10 21:30:00,
2013-11-10 15:32:00,76.6,25.6,25.01,WSW,248,5.8,5.8,15,0.00,,---,0.00,VWS V14.01,2013-11-10 21:32:00,
2013-11-10 15:33:00,76.6,25.6,25.01,WSW,248,5.8,5.8,15,0.00,,---,0.00,VWS V14.01,2013-11-10 21:33:00,
2013-11-10 15:37:00,76.6,25.6,25.01,WSW,248,5.8,5.8,15,0.00,,---,0.00,VWS V14.01,2013-11-10 21:37:00,
2013-11-10 15:38:00,76.6,25.6,25.01,WSW,248,5.8,5.8,15,0.00,,---,0.00,VWS V14.01,2013-11-10 21:38:00,
2013-11-10 15:39:00,76.6,25.6,25.01,WSW,248,5.8,5.8,15,0.00,,---,0.00,VWS V14.01,2013-11-10 21:39:00,
2013-11-10 15:40:00,76.6,25.6,25.01,WSW,248,5.8,5.8,15,0.00,,---,0.00,VWS V14.01,2013-11-10 21:40:00,
2013-11-10 15:41:00,76.6,25.6,25.01,WSW,248,5.8,5.8,15,0.00,,---,0.00,VWS V14.01,2013-11-10 21:41:00,
2013-11-10 15:46:00,76.6,25.6,25.01,WSW,248,5.8,5.8,15,0.00,,---,0.00,VWS V14.01,2013-11-10 21:46:00,
2013-11-10 15:49:00,76.6,25.6,25.01,WSW,248,5.8,5.8,15,0.00,,---,0.00,VWS V14.01,2013-11-10 21:49:00,
2013-11-10 15:54:00,73.4,24.5,25.01,WSW,248,5.8,5.8,16,0.00,,---,0.00,VWS V14.01,2013-11-10 21:54:00,
2013-11-10 15:58:00,73.4,24.5,25.01,WSW,248,5.8,5.8,16,0.00,,---,0.00,VWS V14.01,2013-11-10 21:58:00,
2013-11-10 16:01:00,74.1,25.1,25.01,WSW,248,5.8,5.8,16,0.00,,---,0.00,VWS V14.01,2013-11-10 22:01:00,
2013-11-10 16:05:00,74.1,25.1,25.01,WSW,248,5.8,5.8,16,0.00,,---,0.00,VWS V14.01,2013-11-10 22:05:00,
2013-11-10 16:09:00,74.1,25.1,25.01,WSW,248,5.8,5.8,16,0.00,,---,0.00,VWS V14.01,2013-11-10 22:09:00,
2013-11-10 16:11:00,74.1,25.1,25.01,WSW,248,5.8,5.8,16,0.00,,---,0.00,VWS V14.01,2013-11-10 22:11:00,
2013-11-10 16:13:00,74.1,25.1,25.01,WSW,248,5.8,5.8,16,0.00,,---,0.00,VWS V14.01,2013-11-10 22:13:00,
2013-11-10 16:16:00,73.4,24.5,25.01,WSW,248,5.8,5.8,16,0.00,,---,0.00,VWS V14.01,2013-11-10 22:16:00,
2013-11-10 16:20:00,73.4,24.5,25.01,South,179,7.2,7.2,16,0.00,,---,0.00,VWS V14.01,2013-11-10 22:20:00,
2013-11-10 16:21:00,73.4,24.5,25.01,South,179,7.2,7.2,16,0.00,,---,0.00,VWS V14.01,2013-11-10 22:21:00,
2013-11-10 16:22:00,73.4,24.5,25.01,South,179,7.2,7.2,16,0.00,,---,0.00,VWS V14.01,2013-11-10 22:22:00,
2013-11-10 16:23:00,73.4,24.5,25.01,South,179,7.2,7.2,16,0.00,,---,0.00,VWS V14.01,2013-11-10 22:23:00,
2013-11-10 16:25:00,73.4,24.5,25.01,South,179,7.2,7.2,16,0.00,,---,0.00,VWS V14.01,2013-11-10 22:25:00,
2013-11-10 16:27:00,73.4,24.5,25.01,ESE,121,6.3,7.2,16,0.00,,---,0.00,VWS V14.01,2013-11-10 22:27:00,
2013-11-10 16:28:00,73.4,24.5,25.01,ESE,121,6.3,7.2,16,0.00,,---,0.00,VWS V14.01,2013-11-10 22:28:00,
2013-11-10 16:29:00,73.4,24.5,25.01,ESE,121,6.3,7.2,16,0.00,,---,0.00,VWS V14.01,2013-11-10 22:29:00,
2013-11-10 16:30:00,72.3,23.6,25.01,ESE,121,6.3,7.2,16,0.00,,---,0.00,VWS V14.01,2013-11-10 22:30:00,
2013-11-10 16:32:00,72.3,23.6,25.01,ESE,121,6.3,7.2,16,0.00,,---,0.00,VWS V14.01,2013-11-10 22:32:00,
2013-11-10 16:33:00,72.3,23.6,25.01,ESE,121,6.3,7.2,16,0.00,,---,0.00,VWS V14.01,2013-11-10 22:33:00,
2013-11-10 16:34:00,72.3,23.6,25.01,ESE,121,6.3,7.2,16,0.00,,---,0.00,VWS V14.01,2013-11-10 22:34:00,
2013-11-10 16:39:00,72.7,23.9,25.01,ESE,121,6.3,7.2,16,0.00,,---,0.00,VWS V14.01,2013-11-10 22:39:00,
2013-11-10 16:40:00,72.7,23.9,25.01,ESE,121,6.3,7.2,16,0.00,,---,0.00,VWS V14.01,2013-11-10 22:40:00,
2013-11-10 16:42:00,72.7,23.9,25.01,ESE,121,6.3,7.2,16,0.00,,---,0.00,VWS V14.01,2013-11-10 22:42:00,
2013-11-10 16:43:00,72.7,23.9,25.01,ESE,121,6.3,7.2,16,0.00,,---,0.00,VWS V14.01,2013-11-10 22:43:00,
2013-11-10 16:44:00,72.7,23.9,25.01,ESE,121,6.3,7.2,16,0.00,,---,0.00,VWS V14.01,2013-11-10 22:44:00,
2013-11-10 16:45:00,72.7,23.9,25.01,ESE,121,6.3,7.2,16,0.00,,---,0.00,VWS V14.01,2013-11-10 22:45:00,
2013-11-10 16:46:00,72.7,23.9,25.01,ESE,121,6.3,7.2,16,0.00,,---,0.00,VWS V14.01,2013-11-10 22:46:00,
2013-11-10 16:47:00,72.7,23.9,25.01,ESE,121,6.3,7.2,16,0.00,,---,0.00,VWS V14.01,2013-11-10 22:47:00,
2013-11-10 16:48:00,72.7,23.9,25.01,ESE,121,6.3,7.2,16,0.00,,---,0.00,VWS V14.01,2013-11-10 22:48:00,
2013-11-10 16:51:00,72.1,23.5,25.01,ESE,121,6.3,7.2,16,0.00,,---,0.00,VWS V14.01,2013-11-10 22:51:00,
2013-11-10 16:52:00,72.1,23.5,25.01,ESE,121,6.3,7.2,16,0.00,,---,0.00,VWS V14.01,2013-11-10 22:52:00,
2013-11-10 16:54:00,72.1,23.5,25.01,ESE,121,6.3,7.2,16,0.00,,---,0.00,VWS V14.01,2013-11-10 22:54:00,
2013-11-10 16:55:00,72.1,23.5,25.01,ESE,121,6.3,7.2,16,0.00,,---,0.00,VWS V14.01,2013-11-10 22:55:00,
2013-11-10 17:00:00,71.2,24.2,25.01,ESE,121,6.3,7.2,17,0.00,,---,0.00,VWS V14.01,2013-11-10 23:00:00,
2013-11-10 17:01:00,71.2,24.2,25.01,ESE,121,6.3,7.2,17,0.00,,---,0.00,VWS V14.01,2013-11-10 23:01:00,
2013-11-10 17:05:00,71.2,24.2,25.01,ESE,121,6.3,7.2,17,0.00,,---,0.00,VWS V14.01,2013-11-10 23:05:00,
2013-11-10 17:06:00,71.2,24.2,25.01,ESE,121,6.3,7.2,17,0.00,,---,0.00,VWS V14.01,2013-11-10 23:06:00,
2013-11-10 17:07:00,70.5,23.6,25.01,ESE,121,6.3,7.2,17,0.00,,---,0.00,VWS V14.01,2013-11-10 23:07:00,
2013-11-10 17:10:00,70.5,23.6,25.01,ESE,121,6.3,7.2,17,0.00,,---,0.00,VWS V14.01,2013-11-10 23:10:00,
2013-11-10 17:12:00,70.5,23.6,25.01,ESE,121,6.3,7.2,17,0.00,,---,0.00,VWS V14.01,2013-11-10 23:12:00,
2013-11-10 17:13:00,70.5,23.6,25.01,ESE,121,6.3,7.2,17,0.00,,---,0.00,VWS V14.01,2013-11-10 23:13:00,
2013-11-10 17:14:00,70.5,23.6,25.01,ESE,121,6.3,7.2,17,0.00,,---,0.00,VWS V14.01,2013-11-10 23:14:00,
2013-11-10 17:17:00,70.0,23.2,25.01,ESE,121,6.3,7.2,17,0.00,,---,0.00,VWS V14.01,2013-11-10 23:17:00,
2013-11-10 17:21:00,70.0,23.2,25.01,ESE,121,6.3,7.2,17,0.00,,---,0.00,VWS V14.01,2013-11-10 23:21:00,
2013-11-10 17:22:00,68.2,21.7,25.01,ESE,121,6.3,7.2,17,0.00,,---,0.00,VWS V14.01,2013-11-10 23:22:00,
2013-11-10 17:23:00,68.2,21.7,25.01,ESE,121,6.3,7.2,17,0.00,,---,0.00,VWS V14.01,2013-11-10 23:23:00,
2013-11-10 17:24:00,68.2,21.7,25.01,ESE,121,6.3,7.2,17,0.00,,---,0.00,VWS V14.01,2013-11-10 23:24:00,
2013-11-10 17:26:00,68.2,21.7,25.01,ESE,121,6.3,7.2,17,0.00,,---,0.00,VWS V14.01,2013-11-10 23:26:00,
2013-11-10 17:27:00,67.3,21.0,25.01,ESE,121,6.3,7.2,17,0.00,,---,0.00,VWS V14.01,2013-11-10 23:27:00,
2013-11-10 17:29:00,67.3,21.0,25.01,ESE,121,6.3,7.2,17,0.00,,---,0.00,VWS V14.01,2013-11-10 23:29:00,
2013-11-10 17:32:00,67.3,21.0,25.01,ESE,121,6.3,7.2,17,0.00,,---,0.00,VWS V14.01,2013-11-10 23:32:00,
2013-11-10 17:33:00,67.3,21.0,25.01,ESE,121,6.3,7.2,17,0.00,,---,0.00,VWS V14.01,2013-11-10 23:33:00,
2013-11-10 17:37:00,67.3,21.0,25.01,ESE,121,6.3,7.2,17,0.00,,---,0.00,VWS V14.01,2013-11-10 23:37:00,
2013-11-10 17:41:00,67.3,21.0,25.01,ESE,121,6.3,7.2,17,0.00,,---,0.00,VWS V14.01,2013-11-10 23:41:00,
2013-11-10 17:42:00,67.3,21.0,25.01,ESE,121,6.3,7.2,17,0.00,,---,0.00,VWS V14.01,2013-11-10 23:42:00,
2013-11-10 17:44:00,67.3,21.0,25.01,ESE,121,6.3,7.2,17,0.00,,---,0.00,VWS V14.01,2013-11-10 23:44:00,
2013-11-10 17:47:00,67.3,21.0,25.01,ESE,121,6.3,7.2,17,0.00,,---,0.00,VWS V14.01,2013-11-10 23:47:00,
2013-11-10 17:48:00,65.1,20.6,25.01,ESE,121,6.3,7.2,18,0.00,,---,0.00,VWS V14.01,2013-11-10 23:48:00,
2013-11-10 17:49:00,65.1,20.6,25.01,ESE,121,6.3,7.2,18,0.00,,---,0.00,VWS V14.01,2013-11-10 23:49:00,
2013-11-10 17:56:00,64.2,19.9,25.01,ESE,121,6.3,7.2,18,0.00,,---,0.00,VWS V14.01,2013-11-10 23:56:00,
2013-11-10 17:57:00,64.2,19.9,25.01,ESE,121,6.3,7.2,18,0.00,,---,0.00,VWS V14.01,2013-11-10 23:57:00,
2013-11-10 17:58:00,64.2,19.9,25.01,ESE,121,6.3,7.2,18,0.00,,---,0.00,VWS V14.01,2013-11-10 23:58:00,
2013-11-10 17:59:00,64.2,19.9,25.01,ESE,121,6.3,7.2,18,0.00,,---,0.00,VWS V14.01,2013-11-10 23:59:00,
2013-11-10 18:02:00,64.2,19.9,25.01,ESE,121,6.3,7.2,18,0.00,,---,0.00,VWS V14.01,2013-11-11 00:02:00,
2013-11-10 18:05:00,64.2,19.9,25.01,ESE,121,6.3,7.2,18,0.00,,---,0.00,VWS V14.01,2013-11-11 00:05:00,
2013-11-10 18:07:00,64.2,19.9,25.01,ESE,121,6.3,7.2,18,0.00,,---,0.00,VWS V14.01,2013-11-11 00:07:00,
2013-11-10 18:10:00,64.2,19.9,25.01,ESE,121,6.3,7.2,18,0.00,,---,0.00,VWS V14.01,2013-11-11 00:10:00,
2013-11-10 18:11:00,64.2,19.9,25.01,ESE,121,6.3,7.2,18,0.00,,---,0.00,VWS V14.01,2013-11-11 00:11:00,
2013-11-10 18:12:00,64.2,19.9,25.01,ESE,121,6.3,7.2,18,0.00,,---,0.00,VWS V14.01,2013-11-11 00:12:00,
2013-11-10 18:13:00,64.2,19.9,25.01,ESE,121,6.3,7.2,18,0.00,,---,0.00,VWS V14.01,2013-11-11 00:13:00,
2013-11-10 18:15:00,64.2,19.9,25.01,ESE,121,6.3,7.2,18,0.00,,---,0.00,VWS V14.01,2013-11-11 00:15:00,
2013-11-10 18:16:00,64.2,19.9,25.01,ESE,121,6.3,7.2,18,0.00,,---,0.00,VWS V14.01,2013-11-11 00:16:00,
2013-11-10 18:17:00,64.2,19.9,25.01,ESE,121,6.3,7.2,18,0.00,,---,0.00,VWS V14.01,2013-11-11 00:17:00,
2013-11-10 18:18:00,64.2,19.9,25.01,ESE,121,6.3,7.2,18,0.00,,---,0.00,VWS V14.01,2013-11-11 00:18:00,
2013-11-10 18:21:00,64.2,19.9,25.01,ESE,121,6.3,7.2,18,0.00,,---,0.00,VWS V14.01,2013-11-11 00:21:00,
2013-11-10 18:22:00,64.2,19.9,25.01,SE,128,2.7,7.2,18,0.00,,---,0.00,VWS V14.01,2013-11-11 00:22:00,
2013-11-10 18:23:00,64.2,19.9,25.01,SE,128,2.7,7.2,18,0.00,,---,0.00,VWS V14.01,2013-11-11 00:23:00,
2013-11-10 18:24:00,64.2,19.9,25.01,SE,128,2.7,7.2,18,0.00,,---,0.00,VWS V14.01,2013-11-11 00:24:00,
2013-11-10 18:26:00,59.7,17.4,25.01,SE,128,2.7,7.2,19,0.00,,---,0.00,VWS V14.01,2013-11-11 00:26:00,
2013-11-10 18:28:00,59.7,17.4,25.01,SE,128,2.7,7.2,19,0.00,,---,0.00,VWS V14.01,2013-11-11 00:28:00,
2013-11-10 18:29:00,59.4,17.1,25.01,SE,128,2.7,7.2,19,0.00,,---,0.00,VWS V14.01,2013-11-11 00:29:00,
2013-11-10 18:30:00,59.4,17.1,25.01,SE,128,2.7,7.2,19,0.00,,---,0.00,VWS V14.01,2013-11-11 00:30:00,
2013-11-10 18:32:00,59.4,17.1,25.01,SE,130,4.0,7.2,19,0.00,,---,0.00,VWS V14.01,2013-11-11 00:32:00,
2013-11-10 18:33:00,59.4,17.1,25.01,SE,130,4.0,7.2,19,0.00,,---,0.00,VWS V14.01,2013-11-11 00:33:00,
2013-11-10 18:35:00,59.4,17.1,25.01,SE,130,4.0,7.2,19,0.00,,---,0.00,VWS V14.01,2013-11-11 00:35:00,
2013-11-10 18:37:00,58.8,16.7,25.01,SE,130,4.0,7.2,19,0.00,,---,0.00,VWS V14.01,2013-11-11 00:37:00,
2013-11-10 18:38:00,58.8,16.7,25.01,SE,130,4.0,7.2,19,0.00,,---,0.00,VWS V14.01,2013-11-11 00:38:00,
2013-11-10 18:41:00,58.8,16.7,25.01,SE,130,4.0,4.0,19,0.00,,---,0.00,VWS V14.01,2013-11-11 00:41:00,
2013-11-10 18:43:00,58.8,16.7,25.01,SE,130,4.0,4.0,19,0.00,,---,0.00,VWS V14.01,2013-11-11 00:43:00,
2013-11-10 18:44:00,58.8,16.7,25.01,SE,130,4.0,4.0,19,0.00,,---,0.00,VWS V14.01,2013-11-11 00:44:00,
2013-11-10 18:46:00,58.8,16.7,25.01,SE,130,4.0,4.0,19,0.00,,---,0.00,VWS V14.01,2013-11-11 00:46:00,
2013-11-10 18:48:00,58.8,16.7,25.01,SE,130,4.0,4.0,19,0.00,,---,0.00,VWS V14.01,2013-11-11 00:48:00,
2013-11-10 18:49:00,57.7,15.8,25.01,SE,130,4.0,4.0,19,0.00,,---,0.00,VWS V14.01,2013-11-11 00:49:00,
2013-11-10 18:51:00,57.7,15.8,25.01,SE,130,4.0,4.0,19,0.00,,---,0.00,VWS V14.01,2013-11-11 00:51:00,
2013-11-10 18:53:00,57.7,15.8,25.01,SE,130,4.0,4.0,19,0.00,,---,0.00,VWS V14.01,2013-11-11 00:53:00,
2013-11-10 18:54:00,57.7,15.8,25.01,SE,130,4.0,4.0,19,0.00,,---,0.00,VWS V14.01,2013-11-11 00:54:00,
2013-11-10 18:57:00,57.7,15.8,25.01,SE,130,4.0,4.0,19,0.00,,---,0.00,VWS V14.01,2013-11-11 00:57:00,
2013-11-10 18:58:00,57.7,15.8,25.01,SE,130,4.0,4.0,19,0.00,,---,0.00,VWS V14.01,2013-11-11 00:58:00,
2013-11-10 18:59:00,57.7,15.8,25.01,SE,130,4.0,4.0,19,0.00,,---,0.00,VWS V14.01,2013-11-11 00:59:00,
2013-11-10 19:02:00,57.7,15.8,25.01,SE,130,4.0,4.0,19,0.00,,---,0.00,VWS V14.01,2013-11-11 01:02:00,
2013-11-10 19:04:00,57.7,15.8,25.01,SE,130,4.0,4.0,19,0.00,,---,0.00,VWS V14.01,2013-11-11 01:04:00,
2013-11-10 19:05:00,57.7,15.8,25.01,SE,130,4.0,4.0,19,0.00,,---,0.00,VWS V14.01,2013-11-11 01:05:00,
2013-11-10 19:07:00,56.8,16.2,25.01,SE,130,4.0,4.0,20,0.00,,---,0.00,VWS V14.01,2013-11-11 01:07:00,
2013-11-10 19:09:00,56.8,16.2,25.01,SE,130,4.0,4.0,20,0.00,,---,0.00,VWS V14.01,2013-11-11 01:09:00,
2013-11-10 19:10:00,56.8,16.2,25.01,SE,130,4.0,4.0,20,0.00,,---,0.00,VWS V14.01,2013-11-11 01:10:00,
2013-11-10 19:12:00,56.5,15.9,25.01,SE,130,4.0,4.0,20,0.00,,---,0.00,VWS V14.01,2013-11-11 01:12:00,
2013-11-10 19:14:00,56.5,15.9,25.01,SE,130,4.0,4.0,20,0.00,,---,0.00,VWS V14.01,2013-11-11 01:14:00,
2013-11-10 19:15:00,56.5,15.9,25.01,SE,130,4.0,4.0,20,0.00,,---,0.00,VWS V14.01,2013-11-11 01:15:00,
2013-11-10 19:18:00,56.5,15.9,25.01,SE,130,4.0,4.0,20,0.00,,---,0.00,VWS V14.01,2013-11-11 01:18:00,
2013-11-10 19:19:00,56.5,15.9,25.01,SE,130,4.0,4.0,20,0.00,,---,0.00,VWS V14.01,2013-11-11 01:19:00,
2013-11-10 19:20:00,56.5,15.9,25.01,SE,130,4.0,4.0,20,0.00,,---,0.00,VWS V14.01,2013-11-11 01:20:00,
2013-11-10 19:23:00,56.5,15.9,25.01,SE,130,4.0,4.0,20,0.00,,---,0.00,VWS V14.01,2013-11-11 01:23:00,
2013-11-10 19:24:00,56.1,15.6,25.01,SE,130,4.0,4.0,20,0.00,,---,0.00,VWS V14.01,2013-11-11 01:24:00,
2013-11-10 19:25:00,56.1,15.6,25.01,SE,130,4.0,4.0,20,0.00,,---,0.00,VWS V14.01,2013-11-11 01:25:00,
2013-11-10 19:26:00,48.6,16.1,25.01,NNW,336,0.0,4.0,27,0.00,,---,0.00,VWS V14.01,2013-11-11 01:26:00,
2013-11-10 19:27:00,48.6,16.1,25.01,NNW,336,0.0,4.0,27,0.00,,---,0.00,VWS V14.01,2013-11-11 01:27:00,
2013-11-10 19:28:00,55.9,15.5,25.01,SE,130,4.0,4.0,20,0.00,,---,0.00,VWS V14.01,2013-11-11 01:28:00,
2013-11-10 19:29:00,55.4,15.0,25.01,SE,130,4.0,4.0,20,0.00,,---,0.00,VWS V14.01,2013-11-11 01:29:00,
2013-11-10 19:30:00,55.9,15.5,25.01,SE,130,4.0,4.0,20,0.00,,---,0.00,VWS V14.01,2013-11-11 01:30:00,
2013-11-10 19:31:00,55.9,15.5,25.01,SE,130,4.0,4.0,20,0.00,,---,0.00,VWS V14.01,2013-11-11 01:31:00,
2013-11-10 19:33:00,55.9,15.5,25.01,SE,130,4.0,4.0,20,0.00,,---,0.00,VWS V14.01,2013-11-11 01:33:00,
2013-11-10 19:35:00,55.9,15.5,25.01,SE,130,4.0,4.0,20,0.00,,---,0.00,VWS V14.01,2013-11-11 01:35:00,
2013-11-10 19:36:00,55.4,15.0,25.01,SE,130,4.0,4.0,20,0.00,,---,0.00,VWS V14.01,2013-11-11 01:36:00,
2013-11-10 19:38:00,55.4,15.0,25.01,SE,130,4.0,4.0,20,0.00,,---,0.00,VWS V14.01,2013-11-11 01:38:00,
2013-11-10 19:39:00,48.6,16.1,25.01,NNW,336,0.0,4.0,27,0.00,,---,0.00,VWS V14.01,2013-11-11 01:39:00,
2013-11-10 19:40:00,48.6,16.1,25.01,NNW,336,0.0,4.0,27,0.00,,---,0.00,VWS V14.01,2013-11-11 01:40:00,
2013-11-10 19:41:00,48.6,16.1,25.01,NNW,336,0.0,4.0,27,0.00,,---,0.00,VWS V14.01,2013-11-11 01:41:00,
2013-11-10 19:42:00,52.5,15.8,25.01,SE,130,4.0,4.0,23,0.00,,---,0.00,VWS V14.01,2013-11-11 01:42:00,
2013-11-10 19:43:00,52.5,15.8,25.01,SE,130,4.0,4.0,23,0.00,,---,0.00,VWS V14.01,2013-11-11 01:43:00,
2013-11-10 19:44:00,51.3,15.7,25.01,SE,130,4.0,4.0,24,0.00,,---,0.00,VWS V14.01,2013-11-11 01:44:00,
2013-11-10 19:45:00,51.3,15.7,25.01,SE,130,4.0,4.0,24,0.00,,---,0.00,VWS V14.01,2013-11-11 01:45:00,
2013-11-10 19:46:00,51.3,15.7,25.01,SE,130,4.0,4.0,24,0.00,,---,0.00,VWS V14.01,2013-11-11 01:46:00,
2013-11-10 19:47:00,51.3,15.7,25.01,SE,130,4.0,4.0,24,0.00,,---,0.00,VWS V14.01,2013-11-11 01:47:00,
2013-11-10 19:48:00,51.3,15.7,25.01,SE,130,4.0,4.0,24,0.00,,---,0.00,VWS V14.01,2013-11-11 01:48:00,
2013-11-10 19:49:00,54.9,14.6,25.01,SE,130,4.0,4.0,20,0.00,,---,0.00,VWS V14.01,2013-11-11 01:49:00,
2013-11-10 19:50:00,54.9,14.6,25.01,SE,130,4.0,4.0,20,0.00,,---,0.00,VWS V14.01,2013-11-11 01:50:00,
2013-11-10 19:51:00,51.3,15.7,25.01,SE,130,4.0,4.0,24,0.00,,---,0.00,VWS V14.01,2013-11-11 01:51:00,
2013-11-10 19:52:00,48.6,16.1,25.01,NW,323,4.0,4.0,27,0.00,,---,0.00,VWS V14.01,2013-11-11 01:52:00,
2013-11-10 19:53:00,48.6,16.1,25.01,NW,323,4.0,4.0,27,0.00,,---,0.00,VWS V14.01,2013-11-11 01:53:00,
2013-11-10 19:54:00,54.9,14.6,25.01,SE,130,4.0,4.0,20,0.00,,---,0.00,VWS V14.01,2013-11-11 01:54:00,
2013-11-10 19:55:00,54.9,14.6,25.01,SE,130,4.0,4.0,20,0.00,,---,0.00,VWS V14.01,2013-11-11 01:55:00,
2013-11-10 19:56:00,48.2,15.8,25.01,NW,323,4.0,4.0,27,0.00,,---,0.00,VWS V14.01,2013-11-11 01:56:00,
2013-11-10 19:57:00,48.2,15.8,25.01,NW,323,4.0,4.0,27,0.00,,---,0.00,VWS V14.01,2013-11-11 01:57:00,
2013-11-10 19:58:00,48.2,15.8,25.01,NW,316,4.0,4.0,27,0.00,,---,0.00,VWS V14.01,2013-11-11 01:58:00,
2013-11-10 19:59:00,54.9,14.6,25.01,SE,130,4.0,4.0,20,0.00,,---,0.00,VWS V14.01,2013-11-11 01:59:00,
2013-11-10 20:00:00,54.9,14.6,25.01,SE,130,4.0,4.0,20,0.00,,---,0.00,VWS V14.01,2013-11-11 02:00:00,
2013-11-10 20:01:00,54.9,14.6,25.01,SE,130,4.0,4.0,20,0.00,,---,0.00,VWS V14.01,2013-11-11 02:01:00,
2013-11-10 20:02:00,48.2,16.6,25.01,NNW,330,3.6,4.0,28,0.00,,---,0.00,VWS V14.01,2013-11-11 02:02:00,
2013-11-10 20:03:00,48.2,16.6,25.01,NNW,330,3.6,4.0,28,0.00,,---,0.00,VWS V14.01,2013-11-11 02:03:00,
2013-11-10 20:04:00,54.9,14.6,25.01,SE,130,4.0,4.0,20,0.00,,---,0.00,VWS V14.01,2013-11-11 02:04:00,
2013-11-10 20:05:00,54.9,14.6,25.01,SE,130,4.0,4.0,20,0.00,,---,0.00,VWS V14.01,2013-11-11 02:05:00,
2013-11-10 20:06:00,54.9,14.6,25.01,SE,130,4.0,4.0,20,0.00,,---,0.00,VWS V14.01,2013-11-11 02:06:00,
2013-11-10 20:07:00,48.2,16.6,25.01,NNW,330,3.6,4.0,28,0.00,,---,0.00,VWS V14.01,2013-11-11 02:07:00,
2013-11-10 20:09:00,54.9,14.6,25.01,SE,130,4.0,4.0,20,0.00,,---,0.00,VWS V14.01,2013-11-11 02:09:00,
2013-11-10 20:10:00,54.9,14.6,25.01,SE,130,4.0,4.0,20,0.00,,---,0.00,VWS V14.01,2013-11-11 02:10:00,
2013-11-10 20:11:00,54.9,14.6,25.01,SE,130,4.0,4.0,20,0.00,,---,0.00,VWS V14.01,2013-11-11 02:11:00,
2013-11-10 20:13:00,47.8,16.3,25.01,NNW,330,3.6,4.0,28,0.00,,---,0.00,VWS V14.01,2013-11-11 02:13:00,
2013-11-10 20:14:00,54.9,14.6,25.01,SE,130,4.0,4.0,20,0.00,,---,0.00,VWS V14.01,2013-11-11 02:14:00,
2013-11-10 20:15:00,54.9,14.6,25.01,SE,130,4.0,4.0,20,0.00,,---,0.00,VWS V14.01,2013-11-11 02:15:00,
2013-11-10 20:16:00,54.9,14.6,25.01,SE,130,4.0,4.0,20,0.00,,---,0.00,VWS V14.01,2013-11-11 02:16:00,
2013-11-10 20:17:00,54.9,14.6,25.01,SE,130,4.0,4.0,20,0.00,,---,0.00,VWS V14.01,2013-11-11 02:17:00,
2013-11-10 20:18:00,47.5,16.0,25.01,NNW,330,3.6,4.0,28,0.00,,---,0.00,VWS V14.01,2013-11-11 02:18:00,
2013-11-10 20:19:00,47.3,15.9,25.01,NNW,330,3.6,4.0,28,0.00,,---,0.00,VWS V14.01,2013-11-11 02:19:00,
2013-11-10 20:20:00,52.7,16.0,25.01,SE,130,4.0,4.0,23,0.00,,---,0.00,VWS V14.01,2013-11-11 02:20:00,
2013-11-10 20:21:00,52.5,15.8,25.01,SE,130,4.0,4.0,23,0.00,,---,0.00,VWS V14.01,2013-11-11 02:21:00,
2013-11-10 20:22:00,52.5,15.8,25.01,SE,130,4.0,4.0,23,0.00,,---,0.00,VWS V14.01,2013-11-11 02:22:00,
2013-11-10 20:23:00,47.3,15.9,25.01,NNW,329,0.0,4.0,28,0.00,,---,0.00,VWS V14.01,2013-11-11 02:23:00,
2013-11-10 20:24:00,47.3,15.9,25.01,NNW,329,0.0,4.0,28,0.00,,---,0.00,VWS V14.01,2013-11-11 02:24:00,
2013-11-10 20:25:00,52.5,15.8,25.01,SE,130,4.0,4.0,23,0.00,,---,0.00,VWS V14.01,2013-11-11 02:25:00,
2013-11-10 20:26:00,47.3,15.9,25.01,NNW,329,0.0,4.0,28,0.00,,---,0.00,VWS V14.01,2013-11-11 02:26:00,
2013-11-10 20:27:00,52.5,15.8,25.01,SE,130,4.0,4.0,23,0.00,,---,0.00,VWS V14.01,2013-11-11 02:27:00,
2013-11-10 20:28:00,52.5,15.8,25.01,SE,130,4.0,4.0,23,0.00,,---,0.00,VWS V14.01,2013-11-11 02:28:00,
2013-11-10 20:30:00,52.5,15.8,25.01,SE,130,4.0,4.0,23,0.00,,---,0.00,VWS V14.01,2013-11-11 02:30:00,
2013-11-10 20:31:00,52.5,15.8,25.01,SE,130,4.0,4.0,23,0.00,,---,0.00,VWS V14.01,2013-11-11 02:31:00,
2013-11-10 20:32:00,52.5,15.8,25.01,SE,130,4.0,4.0,23,0.00,,---,0.00,VWS V14.01,2013-11-11 02:32:00,
2013-11-10 20:48:00,51.3,15.7,25.01,SE,130,4.0,4.0,24,0.00,,---,0.00,VWS V14.01,2013-11-11 02:48:00,
2013-11-10 20:52:00,51.3,15.7,25.01,SE,130,4.0,4.0,24,0.00,,---,0.00,VWS V14.01,2013-11-11 02:52:00,
2013-11-10 20:53:00,51.3,15.7,25.01,SE,130,4.0,4.0,24,0.00,,---,0.00,VWS V14.01,2013-11-11 02:53:00,
2013-11-10 20:54:00,51.3,15.7,25.01,SE,130,4.0,4.0,24,0.00,,---,0.00,VWS V14.01,2013-11-11 02:54:00,
2013-11-10 20:57:00,50.5,15.1,25.01,SE,130,4.0,4.0,24,0.00,,---,0.00,VWS V14.01,2013-11-11 02:57:00,
2013-11-10 20:58:00,50.5,15.1,25.01,SE,130,4.0,4.0,24,0.00,,---,0.00,VWS V14.01,2013-11-11 02:58:00,
2013-11-10 21:00:00,50.5,15.1,25.01,SE,130,4.0,4.0,24,0.00,,---,0.00,VWS V14.01,2013-11-11 03:00:00,
2013-11-10 21:02:00,50.5,15.1,25.01,SE,130,4.0,4.0,24,0.00,,---,0.00,VWS V14.01,2013-11-11 03:02:00,
2013-11-10 21:03:00,50.5,15.1,25.01,SE,130,4.0,4.0,24,0.00,,---,0.00,VWS V14.01,2013-11-11 03:03:00,
2013-11-10 21:04:00,50.5,15.1,25.01,SE,130,4.0,4.0,24,0.00,,---,0.00,VWS V14.01,2013-11-11 03:04:00,
2013-11-10 21:05:00,50.5,15.1,25.01,SE,130,4.0,4.0,24,0.00,,---,0.00,VWS V14.01,2013-11-11 03:05:00,
2013-11-10 21:07:00,50.5,15.1,25.01,SE,130,4.0,4.0,24,0.00,,---,0.00,VWS V14.01,2013-11-11 03:07:00,
2013-11-10 21:08:00,50.5,15.1,25.01,SE,130,4.0,4.0,24,0.00,,---,0.00,VWS V14.01,2013-11-11 03:08:00,
2013-11-10 21:09:00,50.2,16.6,25.01,SE,130,4.0,4.0,26,0.00,,---,0.00,VWS V14.01,2013-11-11 03:09:00,
2013-11-10 21:11:00,50.2,16.6,25.01,SE,130,4.0,4.0,26,0.00,,---,0.00,VWS V14.01,2013-11-11 03:11:00,
2013-11-10 21:12:00,50.2,16.6,25.01,NNW,336,0.0,4.0,26,0.00,,---,0.00,VWS V14.01,2013-11-11 03:12:00,
2013-11-10 21:13:00,50.2,16.6,25.01,NNW,336,0.0,4.0,26,0.00,,---,0.00,VWS V14.01,2013-11-11 03:13:00,
2013-11-10 21:14:00,50.2,16.6,25.01,NNW,336,0.0,4.0,26,0.00,,---,0.00,VWS V14.01,2013-11-11 03:14:00,
2013-11-10 21:16:00,50.2,16.6,25.01,NNW,336,0.0,4.0,26,0.00,,---,0.00,VWS V14.01,2013-11-11 03:16:00,
2013-11-10 21:17:00,50.2,16.6,25.01,NNW,336,0.0,4.0,26,0.00,,---,0.00,VWS V14.01,2013-11-11 03:17:00,
2013-11-10 21:18:00,50.2,16.6,25.01,NNW,336,0.0,4.0,26,0.00,,---,0.00,VWS V14.01,2013-11-11 03:18:00,
2013-11-10 21:19:00,49.5,16.0,25.01,NNW,336,0.0,4.0,26,0.00,,---,0.00,VWS V14.01,2013-11-11 03:19:00,
2013-11-10 21:22:00,49.5,16.0,25.01,NNW,336,0.0,4.0,26,0.00,,---,0.00,VWS V14.01,2013-11-11 03:22:00,
2013-11-10 21:23:00,49.5,16.0,25.01,NNW,336,0.0,4.0,26,0.00,,---,0.00,VWS V14.01,2013-11-11 03:23:00,
2013-11-10 21:24:00,49.5,16.0,25.01,NNW,336,0.0,4.0,26,0.00,,---,0.00,VWS V14.01,2013-11-11 03:24:00,
2013-11-10 21:25:00,49.5,16.0,25.01,NNW,336,0.0,4.0,26,0.00,,---,0.00,VWS V14.01,2013-11-11 03:25:00,
2013-11-10 21:28:00,49.5,16.0,25.01,NNW,336,0.0,4.0,26,0.00,,---,0.00,VWS V14.01,2013-11-11 03:28:00,
2013-11-10 21:29:00,49.5,16.0,25.01,NNW,336,0.0,4.0,26,0.00,,---,0.00,VWS V14.01,2013-11-11 03:29:00,
2013-11-10 21:31:00,49.5,16.0,25.01,NNW,336,0.0,4.0,26,0.00,,---,0.00,VWS V14.01,2013-11-11 03:31:00,
2013-11-10 21:35:00,48.6,16.1,25.01,NNW,336,0.0,4.0,27,0.00,,---,0.00,VWS V14.01,2013-11-11 03:35:00,
2013-11-10 21:38:00,48.6,16.1,25.01,NNW,336,0.0,4.0,27,0.00,,---,0.00,VWS V14.01,2013-11-11 03:38:00,
2013-11-10 21:39:00,48.6,16.1,25.01,NNW,336,0.0,4.0,27,0.00,,---,0.00,VWS V14.01,2013-11-11 03:39:00,
2013-11-10 21:44:00,48.6,16.1,25.01,NNW,336,0.0,4.0,27,0.00,,---,0.00,VWS V14.01,2013-11-11 03:44:00,
2013-11-10 21:46:00,48.6,16.1,25.01,NW,323,4.0,4.0,27,0.00,,---,0.00,VWS V14.01,2013-11-11 03:46:00,
2013-11-10 21:47:00,48.6,16.1,25.01,NW,323,4.0,4.0,27,0.00,,---,0.00,VWS V14.01,2013-11-11 03:47:00,
2013-11-10 21:49:00,48.6,16.1,25.01,NW,323,4.0,4.0,27,0.00,,---,0.00,VWS V14.01,2013-11-11 03:49:00,
2013-11-10 21:51:00,48.6,16.1,25.01,NW,323,4.0,4.0,27,0.00,,---,0.00,VWS V14.01,2013-11-11 03:51:00,
2013-11-10 21:52:00,48.6,16.1,25.01,NW,323,4.0,4.0,27,0.00,,---,0.00,VWS V14.01,2013-11-11 03:52:00,
2013-11-10 21:54:00,48.6,16.1,25.01,NW,323,4.0,4.0,27,0.00,,---,0.00,VWS V14.01,2013-11-11 03:54:00,
2013-11-10 21:57:00,48.2,15.8,25.01,NW,323,4.0,4.0,27,0.00,,---,0.00,VWS V14.01,2013-11-11 03:57:00,
2013-11-10 22:02:00,48.2,16.6,25.01,NNW,330,3.6,4.0,28,0.00,,---,0.00,VWS V14.01,2013-11-11 04:02:00,
2013-11-10 22:05:00,48.2,16.6,25.01,NNW,330,3.6,4.0,28,0.00,,---,0.00,VWS V14.01,2013-11-11 04:05:00,
2013-11-10 22:06:00,48.2,16.6,25.01,NNW,330,3.6,4.0,28,0.00,,---,0.00,VWS V14.01,2013-11-11 04:06:00,
2013-11-10 22:07:00,48.2,16.6,25.01,NNW,330,3.6,4.0,28,0.00,,---,0.00,VWS V14.01,2013-11-11 04:07:00,
2013-11-10 22:08:00,48.2,16.6,25.01,NNW,330,3.6,4.0,28,0.00,,---,0.00,VWS V14.01,2013-11-11 04:08:00,
2013-11-10 22:09:00,48.2,16.6,25.01,NNW,330,3.6,4.0,28,0.00,,---,0.00,VWS V14.01,2013-11-11 04:09:00,
2013-11-10 22:10:00,48.2,16.6,25.01,NNW,330,3.6,4.0,28,0.00,,---,0.00,VWS V14.01,2013-11-11 04:10:00,
2013-11-10 22:11:00,47.8,16.3,25.01,NNW,330,3.6,4.0,28,0.00,,---,0.00,VWS V14.01,2013-11-11 04:11:00,
2013-11-10 22:12:00,47.8,16.3,25.01,NNW,330,3.6,4.0,28,0.00,,---,0.00,VWS V14.01,2013-11-11 04:12:00,
2013-11-10 22:13:00,47.8,16.3,25.01,NNW,330,3.6,4.0,28,0.00,,---,0.00,VWS V14.01,2013-11-11 04:13:00,
2013-11-10 22:14:00,47.8,16.3,25.01,NNW,330,3.6,4.0,28,0.00,,---,0.00,VWS V14.01,2013-11-11 04:14:00,
2013-11-10 22:15:00,47.8,16.3,25.01,NNW,330,3.6,4.0,28,0.00,,---,0.00,VWS V14.01,2013-11-11 04:15:00,
2013-11-10 22:16:00,47.8,16.3,25.01,NNW,330,3.6,4.0,28,0.00,,---,0.00,VWS V14.01,2013-11-11 04:16:00,
2013-11-10 22:20:00,47.3,15.9,25.01,NNW,330,3.6,4.0,28,0.00,,---,0.00,VWS V14.01,2013-11-11 04:20:00,
2013-11-10 22:23:00,47.3,15.9,25.01,NNW,329,0.0,4.0,28,0.00,,---,0.00,VWS V14.01,2013-11-11 04:23:00,
2013-11-10 22:25:00,47.3,15.9,25.01,NNW,329,0.0,4.0,28,0.00,,---,0.00,VWS V14.01,2013-11-11 04:25:00,
2013-11-10 22:26:00,47.3,15.9,25.01,NNW,329,0.0,4.0,28,0.00,,---,0.00,VWS V14.01,2013-11-11 04:26:00,
2013-11-10 22:27:00,47.3,15.9,25.01,NNW,329,0.0,4.0,28,0.00,,---,0.00,VWS V14.01,2013-11-11 04:27:00,
2013-11-10 22:28:00,47.3,15.9,25.01,NNW,329,0.0,4.0,28,0.00,,---,0.00,VWS V14.01,2013-11-11 04:28:00,
2013-11-10 22:29:00,47.3,15.9,25.01,NNW,329,0.0,4.0,28,0.00,,---,0.00,VWS V14.01,2013-11-11 04:29:00,
2013-11-10 22:31:00,47.3,15.9,25.01,NNW,337,0.0,0.0,28,0.00,,---,0.00,VWS V14.01,2013-11-11 04:31:00,
2013-11-10 22:32:00,47.3,15.9,25.01,NNW,337,0.0,0.0,28,0.00,,---,0.00,VWS V14.01,2013-11-11 04:32:00,
2013-11-10 22:34:00,47.3,15.9,25.01,NNW,337,0.0,0.0,28,0.00,,---,0.00,VWS V14.01,2013-11-11 04:34:00,
2013-11-10 22:36:00,47.3,15.9,25.01,NNW,337,0.0,0.0,28,0.00,,---,0.00,VWS V14.01,2013-11-11 04:36:00,
2013-11-10 22:37:00,47.3,15.9,25.01,NNW,337,0.0,0.0,28,0.00,,---,0.00,VWS V14.01,2013-11-11 04:37:00,
2013-11-10 22:39:00,47.3,15.9,25.01,NNW,337,0.0,0.0,28,0.00,,---,0.00,VWS V14.01,2013-11-11 04:39:00,
2013-11-10 22:40:00,47.3,15.9,25.01,NNW,337,0.0,0.0,28,0.00,,---,0.00,VWS V14.01,2013-11-11 04:40:00,
2013-11-10 22:41:00,47.3,15.9,25.01,NNW,337,0.0,0.0,28,0.00,,---,0.00,VWS V14.01,2013-11-11 04:41:00,
2013-11-10 22:42:00,46.0,15.6,25.01,NNW,337,0.0,0.0,29,0.00,,---,0.00,VWS V14.01,2013-11-11 04:42:00,
2013-11-10 22:43:00,46.0,15.6,25.01,NNW,337,0.0,0.0,29,0.00,,---,0.00,VWS V14.01,2013-11-11 04:43:00,
2013-11-10 22:44:00,46.0,15.6,25.01,NNW,337,0.0,0.0,29,0.00,,---,0.00,VWS V14.01,2013-11-11 04:44:00,
2013-11-10 22:46:00,46.0,15.6,25.01,NNW,337,0.0,0.0,29,0.00,,---,0.00,VWS V14.01,2013-11-11 04:46:00,
2013-11-10 22:47:00,45.9,16.2,25.01,NNW,337,0.0,0.0,30,0.00,,---,0.00,VWS V14.01,2013-11-11 04:47:00,
2013-11-10 22:48:00,45.9,16.2,25.01,NW,312,2.7,2.7,30,0.00,,---,0.00,VWS V14.01,2013-11-11 04:48:00,
2013-11-10 22:49:00,45.9,16.2,25.01,NW,312,2.7,2.7,30,0.00,,---,0.00,VWS V14.01,2013-11-11 04:49:00,
2013-11-10 22:51:00,45.7,16.0,25.01,NW,312,2.7,2.7,30,0.00,,---,0.00,VWS V14.01,2013-11-11 04:51:00,
2013-11-10 22:52:00,45.7,16.0,25.01,NW,312,0.0,2.7,30,0.00,,---,0.00,VWS V14.01,2013-11-11 04:52:00,
2013-11-10 22:53:00,45.7,16.0,25.01,NW,312,0.0,0.0,30,0.00,,---,0.00,VWS V14.01,2013-11-11 04:53:00,
2013-11-10 22:54:00,45.7,16.0,25.01,NW,312,0.0,0.0,30,0.00,,---,0.00,VWS V14.01,2013-11-11 04:54:00,
2013-11-10 22:55:00,45.7,16.0,25.01,NW,312,0.0,0.0,30,0.00,,---,0.00,VWS V14.01,2013-11-11 04:55:00,
2013-11-10 22:56:00,45.7,16.0,25.01,NW,312,0.0,0.0,30,0.00,,---,0.00,VWS V14.01,2013-11-11 04:56:00,
2013-11-10 22:57:00,45.7,16.0,25.01,NW,312,0.0,0.0,30,0.00,,---,0.00,VWS V14.01,2013-11-11 04:57:00,
2013-11-10 22:58:00,45.7,16.0,25.01,NW,312,0.0,0.0,30,0.00,,---,0.00,VWS V14.01,2013-11-11 04:58:00,
2013-11-10 22:59:00,45.7,16.0,25.01,NW,312,0.0,0.0,30,0.00,,---,0.00,VWS V14.01,2013-11-11 04:59:00,
2013-11-10 23:00:00,45.7,16.0,25.01,NW,312,0.0,0.0,30,0.00,,---,0.00,VWS V14.01,2013-11-11 05:00:00,
2013-11-10 23:01:00,45.7,16.0,25.01,NW,312,0.0,0.0,30,0.00,,---,0.00,VWS V14.01,2013-11-11 05:01:00,
2013-11-10 23:06:00,45.5,16.6,25.01,NW,312,0.0,0.0,31,0.00,,---,0.00,VWS V14.01,2013-11-11 05:06:00,
2013-11-10 23:11:00,45.5,16.6,25.01,NW,312,0.0,0.0,31,0.00,,---,0.00,VWS V14.01,2013-11-11 05:11:00,
2013-11-10 23:12:00,45.5,16.6,25.01,NW,312,0.0,0.0,31,0.00,,---,0.00,VWS V14.01,2013-11-11 05:12:00,
2013-11-10 23:16:00,45.3,16.5,25.01,NW,312,0.0,0.0,31,0.00,,---,0.00,VWS V14.01,2013-11-11 05:16:00,
2013-11-10 23:17:00,45.3,16.5,25.01,NW,312,0.0,0.0,31,0.00,,---,0.00,VWS V14.01,2013-11-11 05:17:00,
2013-11-10 23:21:00,45.3,16.5,25.01,NW,312,0.0,0.0,31,0.00,,---,0.00,VWS V14.01,2013-11-11 05:21:00,
2013-11-10 23:22:00,45.3,16.5,25.01,NW,312,0.0,0.0,31,0.00,,---,0.00,VWS V14.01,2013-11-11 05:22:00,
2013-11-10 23:25:00,41.0,22.8,24.95,NW,313,0.0,4.5,48,0.00,,---,0.00,VWS V14.01,2013-11-11 05:25:00,
2013-11-10 23:26:00,44.6,16.6,25.01,NW,312,0.0,0.0,32,0.00,,---,0.00,VWS V14.01,2013-11-11 05:26:00,
2013-11-10 23:27:00,44.6,16.6,25.01,NW,312,0.0,0.0,32,0.00,,---,0.00,VWS V14.01,2013-11-11 05:27:00,
2013-11-10 23:28:00,44.6,16.6,25.01,NW,312,0.0,0.0,32,0.00,,---,0.00,VWS V14.01,2013-11-11 05:28:00,
2013-11-10 23:29:00,40.6,18.8,25.01,NW,313,0.0,4.5,41,0.00,,---,0.00,VWS V14.01,2013-11-11 05:29:00,
2013-11-10 23:31:00,44.2,17.0,25.01,NW,312,0.0,0.0,33,0.00,,---,0.00,VWS V14.01,2013-11-11 05:31:00,
2013-11-10 23:32:00,44.2,17.0,25.01,NW,312,0.0,0.0,33,0.00,,---,0.00,VWS V14.01,2013-11-11 05:32:00,
2013-11-10 23:33:00,44.2,17.0,25.01,NW,312,0.0,0.0,33,0.00,,---,0.00,VWS V14.01,2013-11-11 05:33:00,
2013-11-10 23:34:00,43.0,19.7,25.01,NW,313,4.0,4.5,39,0.00,,---,0.00,VWS V14.01,2013-11-11 05:34:00,
2013-11-10 23:35:00,43.0,19.7,25.01,NW,313,4.0,4.5,39,0.00,,---,0.00,VWS V14.01,2013-11-11 05:35:00,
2013-11-10 23:36:00,43.0,19.7,25.01,NW,313,4.0,4.5,39,0.00,,---,0.00,VWS V14.01,2013-11-11 05:36:00,
2013-11-10 23:37:00,44.2,17.0,25.01,NW,312,0.0,0.0,33,0.00,,---,0.00,VWS V14.01,2013-11-11 05:37:00,
2013-11-10 23:38:00,44.2,17.0,25.01,NW,312,0.0,0.0,33,0.00,,---,0.00,VWS V14.01,2013-11-11 05:38:00,
2013-11-10 23:39:00,44.2,17.0,25.01,NW,312,0.0,0.0,33,0.00,,---,0.00,VWS V14.01,2013-11-11 05:39:00,
2013-11-10 23:40:00,42.8,19.6,25.01,NW,313,4.0,4.5,39,0.00,,---,0.00,VWS V14.01,2013-11-11 05:40:00,
2013-11-10 23:41:00,39.9,18.7,25.01,NW,313,0.0,4.5,42,0.00,,---,0.00,VWS V14.01,2013-11-11 05:41:00,
2013-11-10 23:42:00,44.2,18.3,25.01,NW,312,0.0,0.0,35,0.00,,---,0.00,VWS V14.01,2013-11-11 05:42:00,
2013-11-10 23:43:00,44.2,18.3,25.01,NW,312,0.0,0.0,35,0.00,,---,0.00,VWS V14.01,2013-11-11 05:43:00,
2013-11-10 23:44:00,44.1,18.2,25.01,NW,312,0.0,0.0,35,0.00,,---,0.00,VWS V14.01,2013-11-11 05:44:00,
2013-11-10 23:45:00,39.9,18.7,25.01,NW,313,0.0,4.5,42,0.00,,---,0.00,VWS V14.01,2013-11-11 05:45:00,
2013-11-10 23:46:00,39.9,18.7,25.01,NW,313,0.0,4.5,42,0.00,,---,0.00,VWS V14.01,2013-11-11 05:46:00,
2013-11-10 23:47:00,44.1,18.2,25.01,NW,312,0.0,2.7,35,0.00,,---,0.00,VWS V14.01,2013-11-11 05:47:00,
2013-11-10 23:48:00,44.1,18.2,25.01,NW,312,0.0,2.7,35,0.00,,---,0.00,VWS V14.01,2013-11-11 05:48:00,
2013-11-10 23:49:00,39.9,18.7,25.01,NW,313,0.0,4.5,42,0.00,,---,0.00,VWS V14.01,2013-11-11 05:49:00,
2013-11-10 23:50:00,44.1,18.2,25.01,NW,312,0.0,2.7,35,0.00,,---,0.00,VWS V14.01,2013-11-11 05:50:00,
2013-11-10 23:51:00,39.9,18.7,25.01,NW,313,0.0,4.5,42,0.00,,---,0.00,VWS V14.01,2013-11-11 05:51:00,
2013-11-10 23:52:00,44.1,18.2,25.01,NW,312,0.0,2.7,35,0.00,,---,0.00,VWS V14.01,2013-11-11 05:52:00,
2013-11-10 23:53:00,44.1,18.2,25.01,NW,312,0.0,2.7,35,0.00,,---,0.00,VWS V14.01,2013-11-11 05:53:00,
2013-11-10 23:54:00,39.9,18.7,25.01,NW,313,0.0,4.5,42,0.00,,---,0.00,VWS V14.01,2013-11-11 05:54:00,
2013-11-10 23:55:00,43.3,17.5,25.01,NW,312,0.0,2.7,35,0.00,,---,0.00,VWS V14.01,2013-11-11 05:55:00,
2013-11-10 23:56:00,39.9,18.7,25.01,NW,313,0.0,4.5,42,0.00,,---,0.00,VWS V14.01,2013-11-11 05:56:00,
2013-11-10 23:57:00,39.9,18.7,25.01,NW,313,0.0,4.5,42,0.00,,---,0.00,VWS V14.01,2013-11-11 05:57:00,
2013-11-10 23:58:00,43.3,17.5,25.01,NW,312,0.0,2.7,35,0.00,,---,0.00,VWS V14.01,2013-11-11 05:58:00,
2013-11-10 23:59:00,43.3,17.5,25.01,NW,312,4.0,4.0,35,0.00,,---,0.00,VWS V14.01,2013-11-11 05:59:00,